<?xml version="1.0" encoding="UTF-8" standalone="no" ?><gpx xmlns="http://www.topografix.com/GPX/1/1" xmlns:gpxx="http://www.garmin.com/xmlschemas/GpxExtensions/v3" xmlns:wptx1="http://www.garmin.com/xmlschemas/WaypointExtension/v1" xmlns:gpxtpx="http://www.garmin.com/xmlschemas/TrackPointExtension/v1" creator="GuideVTT.com" version="1.1" xmlns:xsi="http://www.w3.org/2001/XMLSchema-instance" xsi:schemaLocation="http://www.topografix.com/GPX/1/1 http://www.topografix.com/GPX/1/1/gpx.xsd http://www.garmin.com/xmlschemas/GpxExtensions/v3 http://www8.garmin.com/xmlschemas/GpxExtensionsv3.xsd http://www.garmin.com/xmlschemas/WaypointExtension/v1 http://www8.garmin.com/xmlschemas/WaypointExtensionv1.xsd http://www.garmin.com/xmlschemas/TrackPointExtension/v1 http://www.garmin.com/xmlschemas/TrackPointExtensionv1.xsd">
<metadata><link href="http://www.garmin.com"><text>Garmin International</text></link><time>2013-06-22T15:13:50Z</time></metadata>
<trk><name>rp2019_03.gpx</name><extensions><gpxx:TrackExtension><gpxx:DisplayColor>Cyan</gpxx:DisplayColor></gpxx:TrackExtension></extensions><trkseg>
<trkpt lat="46.20643" lon="7.43988"><ele></ele><time>2019-6-8T22:52:54Z</time></trkpt>
<trkpt lat="46.20643" lon="7.43988"><ele></ele><time>2019-6-8T22:52:57Z</time></trkpt>
<trkpt lat="46.20642" lon="7.43987"><ele></ele><time>2019-6-8T22:53:0Z</time></trkpt>
<trkpt lat="46.20642" lon="7.43987"><ele></ele><time>2019-6-8T22:53:3Z</time></trkpt>
<trkpt lat="46.20642" lon="7.43988"><ele></ele><time>2019-6-8T22:53:6Z</time></trkpt>
<trkpt lat="46.2064" lon="7.43988"><ele></ele><time>2019-6-8T22:53:9Z</time></trkpt>
<trkpt lat="46.20642" lon="7.43989"><ele></ele><time>2019-6-8T22:53:12Z</time></trkpt>
<trkpt lat="46.20642" lon="7.43989"><ele></ele><time>2019-6-8T22:53:15Z</time></trkpt>
<trkpt lat="46.20641" lon="7.43989"><ele></ele><time>2019-6-8T22:53:18Z</time></trkpt>
<trkpt lat="46.20639" lon="7.43989"><ele></ele><time>2019-6-8T22:53:21Z</time></trkpt>
<trkpt lat="46.20638" lon="7.43988"><ele></ele><time>2019-6-8T22:53:24Z</time></trkpt>
<trkpt lat="46.20642" lon="7.43988"><ele></ele><time>2019-6-8T22:53:27Z</time></trkpt>
<trkpt lat="46.20642" lon="7.43988"><ele></ele><time>2019-6-8T22:53:30Z</time></trkpt>
<trkpt lat="46.20642" lon="7.43988"><ele></ele><time>2019-6-8T22:53:33Z</time></trkpt>
<trkpt lat="46.20641" lon="7.43988"><ele></ele><time>2019-6-8T22:53:36Z</time></trkpt>
<trkpt lat="46.20641" lon="7.43993"><ele></ele><time>2019-6-8T22:53:39Z</time></trkpt>
<trkpt lat="46.2064" lon="7.43994"><ele></ele><time>2019-6-8T22:53:42Z</time></trkpt>
<trkpt lat="46.20654" lon="7.44011"><ele></ele><time>2019-6-8T22:53:45Z</time></trkpt>
<trkpt lat="46.20656" lon="7.44016"><ele></ele><time>2019-6-8T22:53:48Z</time></trkpt>
<trkpt lat="46.2068" lon="7.44043"><ele></ele><time>2019-6-8T22:53:51Z</time></trkpt>
<trkpt lat="46.20687" lon="7.44049"><ele></ele><time>2019-6-8T22:53:54Z</time></trkpt>
<trkpt lat="46.20706" lon="7.44058"><ele></ele><time>2019-6-8T22:53:57Z</time></trkpt>
<trkpt lat="46.20724" lon="7.44066"><ele></ele><time>2019-6-8T22:54:0Z</time></trkpt>
<trkpt lat="46.20745" lon="7.44073"><ele></ele><time>2019-6-8T22:54:3Z</time></trkpt>
<trkpt lat="46.20768" lon="7.44075"><ele></ele><time>2019-6-8T22:54:6Z</time></trkpt>
<trkpt lat="46.20792" lon="7.44075"><ele></ele><time>2019-6-8T22:54:9Z</time></trkpt>
<trkpt lat="46.20801" lon="7.44074"><ele></ele><time>2019-6-8T22:54:12Z</time></trkpt>
<trkpt lat="46.20818" lon="7.44067"><ele></ele><time>2019-6-8T22:54:15Z</time></trkpt>
<trkpt lat="46.20836" lon="7.44058"><ele></ele><time>2019-6-8T22:54:18Z</time></trkpt>
<trkpt lat="46.20855" lon="7.44049"><ele></ele><time>2019-6-8T22:54:21Z</time></trkpt>
<trkpt lat="46.20872" lon="7.44041"><ele></ele><time>2019-6-8T22:54:24Z</time></trkpt>
<trkpt lat="46.20894" lon="7.4403"><ele></ele><time>2019-6-8T22:54:27Z</time></trkpt>
<trkpt lat="46.20919" lon="7.44035"><ele></ele><time>2019-6-8T22:54:30Z</time></trkpt>
<trkpt lat="46.20927" lon="7.4404"><ele></ele><time>2019-6-8T22:54:33Z</time></trkpt>
<trkpt lat="46.20937" lon="7.44042"><ele></ele><time>2019-6-8T22:54:36Z</time></trkpt>
<trkpt lat="46.20957" lon="7.44038"><ele></ele><time>2019-6-8T22:54:39Z</time></trkpt>
<trkpt lat="46.20976" lon="7.44022"><ele></ele><time>2019-6-8T22:54:42Z</time></trkpt>
<trkpt lat="46.20985" lon="7.44013"><ele></ele><time>2019-6-8T22:54:45Z</time></trkpt>
<trkpt lat="46.21004" lon="7.43995"><ele></ele><time>2019-6-8T22:54:48Z</time></trkpt>
<trkpt lat="46.21023" lon="7.43975"><ele></ele><time>2019-6-8T22:54:51Z</time></trkpt>
<trkpt lat="46.21032" lon="7.43964"><ele></ele><time>2019-6-8T22:54:54Z</time></trkpt>
<trkpt lat="46.21047" lon="7.43939"><ele></ele><time>2019-6-8T22:54:57Z</time></trkpt>
<trkpt lat="46.21061" lon="7.43915"><ele></ele><time>2019-6-8T22:55:0Z</time></trkpt>
<trkpt lat="46.21078" lon="7.43898"><ele></ele><time>2019-6-8T22:55:3Z</time></trkpt>
<trkpt lat="46.21088" lon="7.43891"><ele></ele><time>2019-6-8T22:55:6Z</time></trkpt>
<trkpt lat="46.21097" lon="7.43885"><ele></ele><time>2019-6-8T22:55:9Z</time></trkpt>
<trkpt lat="46.21117" lon="7.43872"><ele></ele><time>2019-6-8T22:55:12Z</time></trkpt>
<trkpt lat="46.21134" lon="7.43856"><ele></ele><time>2019-6-8T22:55:15Z</time></trkpt>
<trkpt lat="46.2115" lon="7.43835"><ele></ele><time>2019-6-8T22:55:18Z</time></trkpt>
<trkpt lat="46.21164" lon="7.43813"><ele></ele><time>2019-6-8T22:55:21Z</time></trkpt>
<trkpt lat="46.21178" lon="7.43791"><ele></ele><time>2019-6-8T22:55:24Z</time></trkpt>
<trkpt lat="46.21189" lon="7.43769"><ele></ele><time>2019-6-8T22:55:27Z</time></trkpt>
<trkpt lat="46.21201" lon="7.43749"><ele></ele><time>2019-6-8T22:55:30Z</time></trkpt>
<trkpt lat="46.2122" lon="7.43724"><ele></ele><time>2019-6-8T22:55:33Z</time></trkpt>
<trkpt lat="46.21235" lon="7.43699"><ele></ele><time>2019-6-8T22:55:36Z</time></trkpt>
<trkpt lat="46.2124" lon="7.43693"><ele></ele><time>2019-6-8T22:55:39Z</time></trkpt>
<trkpt lat="46.21244" lon="7.43689"><ele></ele><time>2019-6-8T22:55:42Z</time></trkpt>
<trkpt lat="46.21256" lon="7.43676"><ele></ele><time>2019-6-8T22:55:45Z</time></trkpt>
<trkpt lat="46.2126" lon="7.43673"><ele></ele><time>2019-6-8T22:55:48Z</time></trkpt>
<trkpt lat="46.21262" lon="7.43671"><ele></ele><time>2019-6-8T22:55:51Z</time></trkpt>
<trkpt lat="46.21268" lon="7.43664"><ele></ele><time>2019-6-8T22:55:54Z</time></trkpt>
<trkpt lat="46.21276" lon="7.43657"><ele></ele><time>2019-6-8T22:55:57Z</time></trkpt>
<trkpt lat="46.21292" lon="7.4364"><ele></ele><time>2019-6-8T22:56:0Z</time></trkpt>
<trkpt lat="46.21305" lon="7.43628"><ele></ele><time>2019-6-8T22:56:3Z</time></trkpt>
<trkpt lat="46.21314" lon="7.43621"><ele></ele><time>2019-6-8T22:56:6Z</time></trkpt>
<trkpt lat="46.2133" lon="7.43607"><ele></ele><time>2019-6-8T22:56:9Z</time></trkpt>
<trkpt lat="46.21337" lon="7.436"><ele></ele><time>2019-6-8T22:56:12Z</time></trkpt>
<trkpt lat="46.21344" lon="7.43594"><ele></ele><time>2019-6-8T22:56:15Z</time></trkpt>
<trkpt lat="46.21361" lon="7.43581"><ele></ele><time>2019-6-8T22:56:18Z</time></trkpt>
<trkpt lat="46.21372" lon="7.43573"><ele></ele><time>2019-6-8T22:56:21Z</time></trkpt>
<trkpt lat="46.21388" lon="7.43559"><ele></ele><time>2019-6-8T22:56:24Z</time></trkpt>
<trkpt lat="46.21405" lon="7.43544"><ele></ele><time>2019-6-8T22:56:27Z</time></trkpt>
<trkpt lat="46.21413" lon="7.43533"><ele></ele><time>2019-6-8T22:56:30Z</time></trkpt>
<trkpt lat="46.21434" lon="7.43513"><ele></ele><time>2019-6-8T22:56:33Z</time></trkpt>
<trkpt lat="46.21452" lon="7.43503"><ele></ele><time>2019-6-8T22:56:36Z</time></trkpt>
<trkpt lat="46.21461" lon="7.435"><ele></ele><time>2019-6-8T22:56:39Z</time></trkpt>
<trkpt lat="46.21479" lon="7.43496"><ele></ele><time>2019-6-8T22:56:42Z</time></trkpt>
<trkpt lat="46.21489" lon="7.43495"><ele></ele><time>2019-6-8T22:56:45Z</time></trkpt>
<trkpt lat="46.21493" lon="7.43496"><ele></ele><time>2019-6-8T22:56:48Z</time></trkpt>
<trkpt lat="46.21507" lon="7.43511"><ele></ele><time>2019-6-8T22:56:51Z</time></trkpt>
<trkpt lat="46.21518" lon="7.43532"><ele></ele><time>2019-6-8T22:56:54Z</time></trkpt>
<trkpt lat="46.21524" lon="7.43541"><ele></ele><time>2019-6-8T22:56:57Z</time></trkpt>
<trkpt lat="46.21538" lon="7.43558"><ele></ele><time>2019-6-8T22:57:0Z</time></trkpt>
<trkpt lat="46.21557" lon="7.43565"><ele></ele><time>2019-6-8T22:57:3Z</time></trkpt>
<trkpt lat="46.2158" lon="7.4357"><ele></ele><time>2019-6-8T22:57:6Z</time></trkpt>
<trkpt lat="46.21599" lon="7.43572"><ele></ele><time>2019-6-8T22:57:9Z</time></trkpt>
<trkpt lat="46.21618" lon="7.43576"><ele></ele><time>2019-6-8T22:57:12Z</time></trkpt>
<trkpt lat="46.21636" lon="7.43578"><ele></ele><time>2019-6-8T22:57:15Z</time></trkpt>
<trkpt lat="46.21647" lon="7.43579"><ele></ele><time>2019-6-8T22:57:18Z</time></trkpt>
<trkpt lat="46.21658" lon="7.4358"><ele></ele><time>2019-6-8T22:57:21Z</time></trkpt>
<trkpt lat="46.2167" lon="7.43583"><ele></ele><time>2019-6-8T22:57:24Z</time></trkpt>
<trkpt lat="46.21676" lon="7.43585"><ele></ele><time>2019-6-8T22:57:27Z</time></trkpt>
<trkpt lat="46.21696" lon="7.43588"><ele></ele><time>2019-6-8T22:57:30Z</time></trkpt>
<trkpt lat="46.21724" lon="7.43593"><ele></ele><time>2019-6-8T22:57:33Z</time></trkpt>
<trkpt lat="46.21743" lon="7.43593"><ele></ele><time>2019-6-8T22:57:36Z</time></trkpt>
<trkpt lat="46.21749" lon="7.43593"><ele></ele><time>2019-6-8T22:57:39Z</time></trkpt>
<trkpt lat="46.21755" lon="7.43592"><ele></ele><time>2019-6-8T22:57:42Z</time></trkpt>
<trkpt lat="46.21763" lon="7.43585"><ele></ele><time>2019-6-8T22:57:45Z</time></trkpt>
<trkpt lat="46.2178" lon="7.43574"><ele></ele><time>2019-6-8T22:57:48Z</time></trkpt>
<trkpt lat="46.21798" lon="7.43564"><ele></ele><time>2019-6-8T22:57:51Z</time></trkpt>
<trkpt lat="46.21816" lon="7.43553"><ele></ele><time>2019-6-8T22:57:54Z</time></trkpt>
<trkpt lat="46.2184" lon="7.43542"><ele></ele><time>2019-6-8T22:57:57Z</time></trkpt>
<trkpt lat="46.21855" lon="7.43537"><ele></ele><time>2019-6-8T22:58:0Z</time></trkpt>
<trkpt lat="46.21862" lon="7.43535"><ele></ele><time>2019-6-8T22:58:3Z</time></trkpt>
<trkpt lat="46.21876" lon="7.43533"><ele></ele><time>2019-6-8T22:58:6Z</time></trkpt>
<trkpt lat="46.21886" lon="7.43531"><ele></ele><time>2019-6-8T22:58:9Z</time></trkpt>
<trkpt lat="46.21898" lon="7.43537"><ele></ele><time>2019-6-8T22:58:12Z</time></trkpt>
<trkpt lat="46.21917" lon="7.43541"><ele></ele><time>2019-6-8T22:58:15Z</time></trkpt>
<trkpt lat="46.21935" lon="7.43536"><ele></ele><time>2019-6-8T22:58:18Z</time></trkpt>
<trkpt lat="46.2195" lon="7.43531"><ele></ele><time>2019-6-8T22:58:21Z</time></trkpt>
<trkpt lat="46.21953" lon="7.43531"><ele></ele><time>2019-6-8T22:58:24Z</time></trkpt>
<trkpt lat="46.2197" lon="7.43527"><ele></ele><time>2019-6-8T22:58:27Z</time></trkpt>
<trkpt lat="46.2199" lon="7.43526"><ele></ele><time>2019-6-8T22:58:30Z</time></trkpt>
<trkpt lat="46.22007" lon="7.43526"><ele></ele><time>2019-6-8T22:58:33Z</time></trkpt>
<trkpt lat="46.22026" lon="7.43531"><ele></ele><time>2019-6-8T22:58:36Z</time></trkpt>
<trkpt lat="46.22031" lon="7.43535"><ele></ele><time>2019-6-8T22:58:39Z</time></trkpt>
<trkpt lat="46.22037" lon="7.43549"><ele></ele><time>2019-6-8T22:58:42Z</time></trkpt>
<trkpt lat="46.22048" lon="7.43571"><ele></ele><time>2019-6-8T22:58:45Z</time></trkpt>
<trkpt lat="46.22054" lon="7.43578"><ele></ele><time>2019-6-8T22:58:48Z</time></trkpt>
<trkpt lat="46.22084" lon="7.43572"><ele></ele><time>2019-6-8T22:58:51Z</time></trkpt>
<trkpt lat="46.22088" lon="7.43568"><ele></ele><time>2019-6-8T22:58:54Z</time></trkpt>
<trkpt lat="46.22102" lon="7.43547"><ele></ele><time>2019-6-8T22:58:57Z</time></trkpt>
<trkpt lat="46.22116" lon="7.43549"><ele></ele><time>2019-6-8T22:59:0Z</time></trkpt>
<trkpt lat="46.22126" lon="7.43557"><ele></ele><time>2019-6-8T22:59:3Z</time></trkpt>
<trkpt lat="46.2213" lon="7.43561"><ele></ele><time>2019-6-8T22:59:6Z</time></trkpt>
<trkpt lat="46.22131" lon="7.43563"><ele></ele><time>2019-6-8T22:59:9Z</time></trkpt>
<trkpt lat="46.22132" lon="7.43565"><ele></ele><time>2019-6-8T22:59:12Z</time></trkpt>
<trkpt lat="46.22135" lon="7.43567"><ele></ele><time>2019-6-8T22:59:15Z</time></trkpt>
<trkpt lat="46.22137" lon="7.43567"><ele></ele><time>2019-6-8T22:59:18Z</time></trkpt>
<trkpt lat="46.2214" lon="7.4357"><ele></ele><time>2019-6-8T22:59:21Z</time></trkpt>
<trkpt lat="46.22143" lon="7.43573"><ele></ele><time>2019-6-8T22:59:24Z</time></trkpt>
<trkpt lat="46.22144" lon="7.43575"><ele></ele><time>2019-6-8T22:59:27Z</time></trkpt>
<trkpt lat="46.22147" lon="7.43578"><ele></ele><time>2019-6-8T22:59:30Z</time></trkpt>
<trkpt lat="46.22161" lon="7.43581"><ele></ele><time>2019-6-8T22:59:33Z</time></trkpt>
<trkpt lat="46.22168" lon="7.4358"><ele></ele><time>2019-6-8T22:59:36Z</time></trkpt>
<trkpt lat="46.22177" lon="7.4358"><ele></ele><time>2019-6-8T22:59:39Z</time></trkpt>
<trkpt lat="46.22195" lon="7.43581"><ele></ele><time>2019-6-8T22:59:42Z</time></trkpt>
<trkpt lat="46.2221" lon="7.43597"><ele></ele><time>2019-6-8T22:59:45Z</time></trkpt>
<trkpt lat="46.22212" lon="7.43604"><ele></ele><time>2019-6-8T22:59:48Z</time></trkpt>
<trkpt lat="46.22216" lon="7.4361"><ele></ele><time>2019-6-8T22:59:51Z</time></trkpt>
<trkpt lat="46.22222" lon="7.43616"><ele></ele><time>2019-6-8T22:59:54Z</time></trkpt>
<trkpt lat="46.2223" lon="7.43629"><ele></ele><time>2019-6-8T22:59:57Z</time></trkpt>
<trkpt lat="46.22232" lon="7.4363"><ele></ele><time>2019-6-8T23:0:0Z</time></trkpt>
<trkpt lat="46.22236" lon="7.43636"><ele></ele><time>2019-6-8T23:0:3Z</time></trkpt>
<trkpt lat="46.22238" lon="7.43641"><ele></ele><time>2019-6-8T23:0:6Z</time></trkpt>
<trkpt lat="46.22244" lon="7.43649"><ele></ele><time>2019-6-8T23:0:9Z</time></trkpt>
<trkpt lat="46.22249" lon="7.43652"><ele></ele><time>2019-6-8T23:0:12Z</time></trkpt>
<trkpt lat="46.22261" lon="7.43671"><ele></ele><time>2019-6-8T23:0:15Z</time></trkpt>
<trkpt lat="46.22276" lon="7.43685"><ele></ele><time>2019-6-8T23:0:18Z</time></trkpt>
<trkpt lat="46.22287" lon="7.43698"><ele></ele><time>2019-6-8T23:0:21Z</time></trkpt>
<trkpt lat="46.22296" lon="7.43715"><ele></ele><time>2019-6-8T23:0:24Z</time></trkpt>
<trkpt lat="46.223" lon="7.4372"><ele></ele><time>2019-6-8T23:0:27Z</time></trkpt>
<trkpt lat="46.22308" lon="7.43733"><ele></ele><time>2019-6-8T23:0:30Z</time></trkpt>
<trkpt lat="46.22317" lon="7.43754"><ele></ele><time>2019-6-8T23:0:33Z</time></trkpt>
<trkpt lat="46.22327" lon="7.43776"><ele></ele><time>2019-6-8T23:0:36Z</time></trkpt>
<trkpt lat="46.22328" lon="7.43777"><ele></ele><time>2019-6-8T23:0:39Z</time></trkpt>
<trkpt lat="46.22328" lon="7.43784"><ele></ele><time>2019-6-8T23:0:42Z</time></trkpt>
<trkpt lat="46.22328" lon="7.43797"><ele></ele><time>2019-6-8T23:0:45Z</time></trkpt>
<trkpt lat="46.22331" lon="7.4381"><ele></ele><time>2019-6-8T23:0:48Z</time></trkpt>
<trkpt lat="46.2234" lon="7.43836"><ele></ele><time>2019-6-8T23:0:51Z</time></trkpt>
<trkpt lat="46.22347" lon="7.43872"><ele></ele><time>2019-6-8T23:0:54Z</time></trkpt>
<trkpt lat="46.22349" lon="7.43895"><ele></ele><time>2019-6-8T23:0:57Z</time></trkpt>
<trkpt lat="46.22355" lon="7.43914"><ele></ele><time>2019-6-8T23:1:0Z</time></trkpt>
<trkpt lat="46.22353" lon="7.43942"><ele></ele><time>2019-6-8T23:1:3Z</time></trkpt>
<trkpt lat="46.22353" lon="7.43959"><ele></ele><time>2019-6-8T23:1:6Z</time></trkpt>
<trkpt lat="46.2235" lon="7.43988"><ele></ele><time>2019-6-8T23:1:9Z</time></trkpt>
<trkpt lat="46.22348" lon="7.44014"><ele></ele><time>2019-6-8T23:1:12Z</time></trkpt>
<trkpt lat="46.22348" lon="7.44042"><ele></ele><time>2019-6-8T23:1:15Z</time></trkpt>
<trkpt lat="46.22348" lon="7.4405"><ele></ele><time>2019-6-8T23:1:18Z</time></trkpt>
<trkpt lat="46.2235" lon="7.44054"><ele></ele><time>2019-6-8T23:1:21Z</time></trkpt>
<trkpt lat="46.22356" lon="7.44066"><ele></ele><time>2019-6-8T23:1:24Z</time></trkpt>
<trkpt lat="46.22357" lon="7.44078"><ele></ele><time>2019-6-8T23:1:27Z</time></trkpt>
<trkpt lat="46.22357" lon="7.44084"><ele></ele><time>2019-6-8T23:1:30Z</time></trkpt>
<trkpt lat="46.22361" lon="7.44096"><ele></ele><time>2019-6-8T23:1:33Z</time></trkpt>
<trkpt lat="46.22365" lon="7.44108"><ele></ele><time>2019-6-8T23:1:36Z</time></trkpt>
<trkpt lat="46.22367" lon="7.4412"><ele></ele><time>2019-6-8T23:1:39Z</time></trkpt>
<trkpt lat="46.22368" lon="7.44126"><ele></ele><time>2019-6-8T23:1:42Z</time></trkpt>
<trkpt lat="46.22379" lon="7.44148"><ele></ele><time>2019-6-8T23:1:45Z</time></trkpt>
<trkpt lat="46.22382" lon="7.44164"><ele></ele><time>2019-6-8T23:1:48Z</time></trkpt>
<trkpt lat="46.22386" lon="7.4418"><ele></ele><time>2019-6-8T23:1:51Z</time></trkpt>
<trkpt lat="46.22388" lon="7.44189"><ele></ele><time>2019-6-8T23:1:54Z</time></trkpt>
<trkpt lat="46.22389" lon="7.44199"><ele></ele><time>2019-6-8T23:1:57Z</time></trkpt>
<trkpt lat="46.22389" lon="7.4421"><ele></ele><time>2019-6-8T23:2:0Z</time></trkpt>
<trkpt lat="46.22387" lon="7.44214"><ele></ele><time>2019-6-8T23:2:3Z</time></trkpt>
<trkpt lat="46.22389" lon="7.44225"><ele></ele><time>2019-6-8T23:2:6Z</time></trkpt>
<trkpt lat="46.22389" lon="7.4424"><ele></ele><time>2019-6-8T23:2:9Z</time></trkpt>
<trkpt lat="46.22392" lon="7.44254"><ele></ele><time>2019-6-8T23:2:12Z</time></trkpt>
<trkpt lat="46.22393" lon="7.44266"><ele></ele><time>2019-6-8T23:2:15Z</time></trkpt>
<trkpt lat="46.22393" lon="7.44268"><ele></ele><time>2019-6-8T23:2:18Z</time></trkpt>
<trkpt lat="46.2239" lon="7.4429"><ele></ele><time>2019-6-8T23:2:21Z</time></trkpt>
<trkpt lat="46.22389" lon="7.44299"><ele></ele><time>2019-6-8T23:2:24Z</time></trkpt>
<trkpt lat="46.22398" lon="7.44322"><ele></ele><time>2019-6-8T23:2:27Z</time></trkpt>
<trkpt lat="46.22399" lon="7.4433"><ele></ele><time>2019-6-8T23:2:30Z</time></trkpt>
<trkpt lat="46.22407" lon="7.44352"><ele></ele><time>2019-6-8T23:2:33Z</time></trkpt>
<trkpt lat="46.22412" lon="7.44368"><ele></ele><time>2019-6-8T23:2:36Z</time></trkpt>
<trkpt lat="46.22414" lon="7.4438"><ele></ele><time>2019-6-8T23:2:39Z</time></trkpt>
<trkpt lat="46.22419" lon="7.44398"><ele></ele><time>2019-6-8T23:2:42Z</time></trkpt>
<trkpt lat="46.22418" lon="7.44417"><ele></ele><time>2019-6-8T23:2:45Z</time></trkpt>
<trkpt lat="46.22418" lon="7.44425"><ele></ele><time>2019-6-8T23:2:48Z</time></trkpt>
<trkpt lat="46.22418" lon="7.44436"><ele></ele><time>2019-6-8T23:2:51Z</time></trkpt>
<trkpt lat="46.22422" lon="7.44445"><ele></ele><time>2019-6-8T23:2:54Z</time></trkpt>
<trkpt lat="46.22428" lon="7.44462"><ele></ele><time>2019-6-8T23:2:57Z</time></trkpt>
<trkpt lat="46.2242" lon="7.44476"><ele></ele><time>2019-6-8T23:3:0Z</time></trkpt>
<trkpt lat="46.22421" lon="7.44491"><ele></ele><time>2019-6-8T23:3:3Z</time></trkpt>
<trkpt lat="46.22421" lon="7.44497"><ele></ele><time>2019-6-8T23:3:6Z</time></trkpt>
<trkpt lat="46.22423" lon="7.44506"><ele></ele><time>2019-6-8T23:3:9Z</time></trkpt>
<trkpt lat="46.22423" lon="7.44508"><ele></ele><time>2019-6-8T23:3:12Z</time></trkpt>
<trkpt lat="46.22428" lon="7.44528"><ele></ele><time>2019-6-8T23:3:15Z</time></trkpt>
<trkpt lat="46.22428" lon="7.44545"><ele></ele><time>2019-6-8T23:3:18Z</time></trkpt>
<trkpt lat="46.22427" lon="7.44552"><ele></ele><time>2019-6-8T23:3:21Z</time></trkpt>
<trkpt lat="46.22427" lon="7.44564"><ele></ele><time>2019-6-8T23:3:24Z</time></trkpt>
<trkpt lat="46.22427" lon="7.44566"><ele></ele><time>2019-6-8T23:3:27Z</time></trkpt>
<trkpt lat="46.22431" lon="7.44572"><ele></ele><time>2019-6-8T23:3:30Z</time></trkpt>
<trkpt lat="46.22435" lon="7.44583"><ele></ele><time>2019-6-8T23:3:33Z</time></trkpt>
<trkpt lat="46.22442" lon="7.44598"><ele></ele><time>2019-6-8T23:3:36Z</time></trkpt>
<trkpt lat="46.22442" lon="7.44603"><ele></ele><time>2019-6-8T23:3:39Z</time></trkpt>
<trkpt lat="46.22443" lon="7.44621"><ele></ele><time>2019-6-8T23:3:42Z</time></trkpt>
<trkpt lat="46.22444" lon="7.44623"><ele></ele><time>2019-6-8T23:3:45Z</time></trkpt>
<trkpt lat="46.22445" lon="7.44631"><ele></ele><time>2019-6-8T23:3:48Z</time></trkpt>
<trkpt lat="46.22442" lon="7.44646"><ele></ele><time>2019-6-8T23:3:51Z</time></trkpt>
<trkpt lat="46.22428" lon="7.4466"><ele></ele><time>2019-6-8T23:3:54Z</time></trkpt>
<trkpt lat="46.22431" lon="7.44684"><ele></ele><time>2019-6-8T23:3:57Z</time></trkpt>
<trkpt lat="46.22424" lon="7.44706"><ele></ele><time>2019-6-8T23:4:0Z</time></trkpt>
<trkpt lat="46.2242" lon="7.44713"><ele></ele><time>2019-6-8T23:4:3Z</time></trkpt>
<trkpt lat="46.22415" lon="7.44726"><ele></ele><time>2019-6-8T23:4:6Z</time></trkpt>
<trkpt lat="46.22414" lon="7.44735"><ele></ele><time>2019-6-8T23:4:9Z</time></trkpt>
<trkpt lat="46.22412" lon="7.44737"><ele></ele><time>2019-6-8T23:4:12Z</time></trkpt>
<trkpt lat="46.22411" lon="7.44753"><ele></ele><time>2019-6-8T23:4:15Z</time></trkpt>
<trkpt lat="46.2242" lon="7.4478"><ele></ele><time>2019-6-8T23:4:18Z</time></trkpt>
<trkpt lat="46.22419" lon="7.448"><ele></ele><time>2019-6-8T23:4:21Z</time></trkpt>
<trkpt lat="46.2242" lon="7.44801"><ele></ele><time>2019-6-8T23:4:24Z</time></trkpt>
<trkpt lat="46.22422" lon="7.44829"><ele></ele><time>2019-6-8T23:4:27Z</time></trkpt>
<trkpt lat="46.22424" lon="7.44844"><ele></ele><time>2019-6-8T23:4:30Z</time></trkpt>
<trkpt lat="46.22432" lon="7.44869"><ele></ele><time>2019-6-8T23:4:33Z</time></trkpt>
<trkpt lat="46.22433" lon="7.44885"><ele></ele><time>2019-6-8T23:4:36Z</time></trkpt>
<trkpt lat="46.22431" lon="7.44901"><ele></ele><time>2019-6-8T23:4:39Z</time></trkpt>
<trkpt lat="46.22425" lon="7.44918"><ele></ele><time>2019-6-8T23:4:42Z</time></trkpt>
<trkpt lat="46.2242" lon="7.44943"><ele></ele><time>2019-6-8T23:4:45Z</time></trkpt>
<trkpt lat="46.22412" lon="7.44966"><ele></ele><time>2019-6-8T23:4:48Z</time></trkpt>
<trkpt lat="46.22405" lon="7.4499"><ele></ele><time>2019-6-8T23:4:51Z</time></trkpt>
<trkpt lat="46.22407" lon="7.44996"><ele></ele><time>2019-6-8T23:4:54Z</time></trkpt>
<trkpt lat="46.22408" lon="7.45002"><ele></ele><time>2019-6-8T23:4:57Z</time></trkpt>
<trkpt lat="46.22409" lon="7.45008"><ele></ele><time>2019-6-8T23:5:0Z</time></trkpt>
<trkpt lat="46.22412" lon="7.45034"><ele></ele><time>2019-6-8T23:5:3Z</time></trkpt>
<trkpt lat="46.22411" lon="7.45036"><ele></ele><time>2019-6-8T23:5:6Z</time></trkpt>
<trkpt lat="46.22405" lon="7.45052"><ele></ele><time>2019-6-8T23:5:9Z</time></trkpt>
<trkpt lat="46.22402" lon="7.45052"><ele></ele><time>2019-6-8T23:5:12Z</time></trkpt>
<trkpt lat="46.22398" lon="7.45051"><ele></ele><time>2019-6-8T23:5:15Z</time></trkpt>
<trkpt lat="46.22398" lon="7.45052"><ele></ele><time>2019-6-8T23:5:18Z</time></trkpt>
<trkpt lat="46.22392" lon="7.45057"><ele></ele><time>2019-6-8T23:5:21Z</time></trkpt>
<trkpt lat="46.22393" lon="7.45061"><ele></ele><time>2019-6-8T23:5:24Z</time></trkpt>
<trkpt lat="46.22394" lon="7.45069"><ele></ele><time>2019-6-8T23:5:27Z</time></trkpt>
<trkpt lat="46.22397" lon="7.45067"><ele></ele><time>2019-6-8T23:5:30Z</time></trkpt>
<trkpt lat="46.22397" lon="7.4507"><ele></ele><time>2019-6-8T23:5:33Z</time></trkpt>
<trkpt lat="46.22396" lon="7.4507"><ele></ele><time>2019-6-8T23:5:36Z</time></trkpt>
<trkpt lat="46.22394" lon="7.45071"><ele></ele><time>2019-6-8T23:5:39Z</time></trkpt>
<trkpt lat="46.22394" lon="7.45073"><ele></ele><time>2019-6-8T23:5:42Z</time></trkpt>
<trkpt lat="46.22394" lon="7.45076"><ele></ele><time>2019-6-8T23:5:45Z</time></trkpt>
<trkpt lat="46.22398" lon="7.45086"><ele></ele><time>2019-6-8T23:5:48Z</time></trkpt>
<trkpt lat="46.224" lon="7.45087"><ele></ele><time>2019-6-8T23:5:51Z</time></trkpt>
<trkpt lat="46.22401" lon="7.45092"><ele></ele><time>2019-6-8T23:5:54Z</time></trkpt>
<trkpt lat="46.22402" lon="7.45104"><ele></ele><time>2019-6-8T23:5:57Z</time></trkpt>
<trkpt lat="46.224" lon="7.45115"><ele></ele><time>2019-6-8T23:6:0Z</time></trkpt>
<trkpt lat="46.224" lon="7.45127"><ele></ele><time>2019-6-8T23:6:3Z</time></trkpt>
<trkpt lat="46.22402" lon="7.45153"><ele></ele><time>2019-6-8T23:6:6Z</time></trkpt>
<trkpt lat="46.22403" lon="7.45157"><ele></ele><time>2019-6-8T23:6:9Z</time></trkpt>
<trkpt lat="46.22406" lon="7.45165"><ele></ele><time>2019-6-8T23:6:12Z</time></trkpt>
<trkpt lat="46.22408" lon="7.45178"><ele></ele><time>2019-6-8T23:6:15Z</time></trkpt>
<trkpt lat="46.22407" lon="7.45187"><ele></ele><time>2019-6-8T23:6:18Z</time></trkpt>
<trkpt lat="46.22407" lon="7.45189"><ele></ele><time>2019-6-8T23:6:21Z</time></trkpt>
<trkpt lat="46.22406" lon="7.45189"><ele></ele><time>2019-6-8T23:6:24Z</time></trkpt>
<trkpt lat="46.22406" lon="7.4519"><ele></ele><time>2019-6-8T23:6:27Z</time></trkpt>
<trkpt lat="46.22406" lon="7.4519"><ele></ele><time>2019-6-8T23:6:30Z</time></trkpt>
<trkpt lat="46.22401" lon="7.45196"><ele></ele><time>2019-6-8T23:6:33Z</time></trkpt>
<trkpt lat="46.22397" lon="7.45188"><ele></ele><time>2019-6-8T23:6:36Z</time></trkpt>
<trkpt lat="46.22398" lon="7.45178"><ele></ele><time>2019-6-8T23:6:39Z</time></trkpt>
<trkpt lat="46.22398" lon="7.45174"><ele></ele><time>2019-6-8T23:6:42Z</time></trkpt>
<trkpt lat="46.22394" lon="7.45164"><ele></ele><time>2019-6-8T23:6:45Z</time></trkpt>
<trkpt lat="46.2239" lon="7.45168"><ele></ele><time>2019-6-8T23:6:48Z</time></trkpt>
<trkpt lat="46.22385" lon="7.4517"><ele></ele><time>2019-6-8T23:6:51Z</time></trkpt>
<trkpt lat="46.22383" lon="7.45168"><ele></ele><time>2019-6-8T23:6:54Z</time></trkpt>
<trkpt lat="46.22384" lon="7.45163"><ele></ele><time>2019-6-8T23:6:57Z</time></trkpt>
<trkpt lat="46.22383" lon="7.45151"><ele></ele><time>2019-6-8T23:7:0Z</time></trkpt>
<trkpt lat="46.22382" lon="7.45144"><ele></ele><time>2019-6-8T23:7:3Z</time></trkpt>
<trkpt lat="46.22381" lon="7.45144"><ele></ele><time>2019-6-8T23:7:6Z</time></trkpt>
<trkpt lat="46.2238" lon="7.45143"><ele></ele><time>2019-6-8T23:7:9Z</time></trkpt>
<trkpt lat="46.22373" lon="7.45149"><ele></ele><time>2019-6-8T23:7:12Z</time></trkpt>
<trkpt lat="46.22372" lon="7.45151"><ele></ele><time>2019-6-8T23:7:15Z</time></trkpt>
<trkpt lat="46.22373" lon="7.45154"><ele></ele><time>2019-6-8T23:7:18Z</time></trkpt>
<trkpt lat="46.22373" lon="7.45156"><ele></ele><time>2019-6-8T23:7:21Z</time></trkpt>
<trkpt lat="46.22372" lon="7.4516"><ele></ele><time>2019-6-8T23:7:24Z</time></trkpt>
<trkpt lat="46.22372" lon="7.45163"><ele></ele><time>2019-6-8T23:7:27Z</time></trkpt>
<trkpt lat="46.22371" lon="7.45164"><ele></ele><time>2019-6-8T23:7:30Z</time></trkpt>
<trkpt lat="46.22371" lon="7.45165"><ele></ele><time>2019-6-8T23:7:33Z</time></trkpt>
<trkpt lat="46.2237" lon="7.45163"><ele></ele><time>2019-6-8T23:7:36Z</time></trkpt>
<trkpt lat="46.2237" lon="7.45146"><ele></ele><time>2019-6-8T23:7:39Z</time></trkpt>
<trkpt lat="46.2237" lon="7.45134"><ele></ele><time>2019-6-8T23:7:42Z</time></trkpt>
<trkpt lat="46.2237" lon="7.45134"><ele></ele><time>2019-6-8T23:7:45Z</time></trkpt>
<trkpt lat="46.22365" lon="7.45134"><ele></ele><time>2019-6-8T23:7:48Z</time></trkpt>
<trkpt lat="46.2236" lon="7.45133"><ele></ele><time>2019-6-8T23:7:51Z</time></trkpt>
<trkpt lat="46.22352" lon="7.4513"><ele></ele><time>2019-6-8T23:7:54Z</time></trkpt>
<trkpt lat="46.22352" lon="7.45123"><ele></ele><time>2019-6-8T23:7:57Z</time></trkpt>
<trkpt lat="46.22357" lon="7.45107"><ele></ele><time>2019-6-8T23:8:0Z</time></trkpt>
<trkpt lat="46.22356" lon="7.45102"><ele></ele><time>2019-6-8T23:8:3Z</time></trkpt>
<trkpt lat="46.22353" lon="7.45101"><ele></ele><time>2019-6-8T23:8:6Z</time></trkpt>
<trkpt lat="46.22346" lon="7.45087"><ele></ele><time>2019-6-8T23:8:9Z</time></trkpt>
<trkpt lat="46.22348" lon="7.45078"><ele></ele><time>2019-6-8T23:8:12Z</time></trkpt>
<trkpt lat="46.22332" lon="7.45069"><ele></ele><time>2019-6-8T23:8:15Z</time></trkpt>
<trkpt lat="46.22335" lon="7.45058"><ele></ele><time>2019-6-8T23:8:18Z</time></trkpt>
<trkpt lat="46.22328" lon="7.45049"><ele></ele><time>2019-6-8T23:8:21Z</time></trkpt>
<trkpt lat="46.22322" lon="7.45048"><ele></ele><time>2019-6-8T23:8:24Z</time></trkpt>
<trkpt lat="46.22314" lon="7.45024"><ele></ele><time>2019-6-8T23:8:27Z</time></trkpt>
<trkpt lat="46.22304" lon="7.45002"><ele></ele><time>2019-6-8T23:8:30Z</time></trkpt>
<trkpt lat="46.22294" lon="7.45014"><ele></ele><time>2019-6-8T23:8:33Z</time></trkpt>
<trkpt lat="46.2229" lon="7.4504"><ele></ele><time>2019-6-8T23:8:36Z</time></trkpt>
<trkpt lat="46.22286" lon="7.45065"><ele></ele><time>2019-6-8T23:8:39Z</time></trkpt>
<trkpt lat="46.22291" lon="7.45092"><ele></ele><time>2019-6-8T23:8:42Z</time></trkpt>
<trkpt lat="46.22295" lon="7.45117"><ele></ele><time>2019-6-8T23:8:45Z</time></trkpt>
<trkpt lat="46.22296" lon="7.45142"><ele></ele><time>2019-6-8T23:8:48Z</time></trkpt>
<trkpt lat="46.22289" lon="7.4516"><ele></ele><time>2019-6-8T23:8:51Z</time></trkpt>
<trkpt lat="46.22289" lon="7.45187"><ele></ele><time>2019-6-8T23:8:54Z</time></trkpt>
<trkpt lat="46.22293" lon="7.45213"><ele></ele><time>2019-6-8T23:8:57Z</time></trkpt>
<trkpt lat="46.22298" lon="7.45239"><ele></ele><time>2019-6-8T23:9:0Z</time></trkpt>
<trkpt lat="46.22302" lon="7.45265"><ele></ele><time>2019-6-8T23:9:3Z</time></trkpt>
<trkpt lat="46.22295" lon="7.45289"><ele></ele><time>2019-6-8T23:9:6Z</time></trkpt>
<trkpt lat="46.22293" lon="7.45293"><ele></ele><time>2019-6-8T23:9:9Z</time></trkpt>
<trkpt lat="46.22286" lon="7.45308"><ele></ele><time>2019-6-8T23:9:12Z</time></trkpt>
<trkpt lat="46.22286" lon="7.45276"><ele></ele><time>2019-6-8T23:9:15Z</time></trkpt>
<trkpt lat="46.22279" lon="7.4525"><ele></ele><time>2019-6-8T23:9:18Z</time></trkpt>
<trkpt lat="46.22267" lon="7.45228"><ele></ele><time>2019-6-8T23:9:21Z</time></trkpt>
<trkpt lat="46.22255" lon="7.45208"><ele></ele><time>2019-6-8T23:9:24Z</time></trkpt>
<trkpt lat="46.22245" lon="7.45186"><ele></ele><time>2019-6-8T23:9:27Z</time></trkpt>
<trkpt lat="46.22238" lon="7.45153"><ele></ele><time>2019-6-8T23:9:30Z</time></trkpt>
<trkpt lat="46.2224" lon="7.45142"><ele></ele><time>2019-6-8T23:9:33Z</time></trkpt>
<trkpt lat="46.22237" lon="7.45116"><ele></ele><time>2019-6-8T23:9:36Z</time></trkpt>
<trkpt lat="46.22229" lon="7.45091"><ele></ele><time>2019-6-8T23:9:39Z</time></trkpt>
<trkpt lat="46.22228" lon="7.45077"><ele></ele><time>2019-6-8T23:9:42Z</time></trkpt>
<trkpt lat="46.22223" lon="7.45049"><ele></ele><time>2019-6-8T23:9:45Z</time></trkpt>
<trkpt lat="46.22222" lon="7.45042"><ele></ele><time>2019-6-8T23:9:48Z</time></trkpt>
<trkpt lat="46.22211" lon="7.45019"><ele></ele><time>2019-6-8T23:9:51Z</time></trkpt>
<trkpt lat="46.22194" lon="7.44992"><ele></ele><time>2019-6-8T23:9:54Z</time></trkpt>
<trkpt lat="46.22193" lon="7.44965"><ele></ele><time>2019-6-8T23:9:57Z</time></trkpt>
<trkpt lat="46.22192" lon="7.4495"><ele></ele><time>2019-6-8T23:10:0Z</time></trkpt>
<trkpt lat="46.22187" lon="7.44925"><ele></ele><time>2019-6-8T23:10:3Z</time></trkpt>
<trkpt lat="46.22188" lon="7.44898"><ele></ele><time>2019-6-8T23:10:6Z</time></trkpt>
<trkpt lat="46.2219" lon="7.44871"><ele></ele><time>2019-6-8T23:10:9Z</time></trkpt>
<trkpt lat="46.22185" lon="7.44846"><ele></ele><time>2019-6-8T23:10:12Z</time></trkpt>
<trkpt lat="46.22174" lon="7.44817"><ele></ele><time>2019-6-8T23:10:15Z</time></trkpt>
<trkpt lat="46.22169" lon="7.44793"><ele></ele><time>2019-6-8T23:10:18Z</time></trkpt>
<trkpt lat="46.2217" lon="7.4479"><ele></ele><time>2019-6-8T23:10:21Z</time></trkpt>
<trkpt lat="46.22175" lon="7.44767"><ele></ele><time>2019-6-8T23:10:24Z</time></trkpt>
<trkpt lat="46.22167" lon="7.44742"><ele></ele><time>2019-6-8T23:10:27Z</time></trkpt>
<trkpt lat="46.22158" lon="7.4472"><ele></ele><time>2019-6-8T23:10:30Z</time></trkpt>
<trkpt lat="46.22151" lon="7.44696"><ele></ele><time>2019-6-8T23:10:33Z</time></trkpt>
<trkpt lat="46.22145" lon="7.44675"><ele></ele><time>2019-6-8T23:10:36Z</time></trkpt>
<trkpt lat="46.22137" lon="7.44664"><ele></ele><time>2019-6-8T23:10:39Z</time></trkpt>
<trkpt lat="46.22129" lon="7.44654"><ele></ele><time>2019-6-8T23:10:42Z</time></trkpt>
<trkpt lat="46.22124" lon="7.44647"><ele></ele><time>2019-6-8T23:10:45Z</time></trkpt>
<trkpt lat="46.22112" lon="7.44633"><ele></ele><time>2019-6-8T23:10:48Z</time></trkpt>
<trkpt lat="46.22109" lon="7.4461"><ele></ele><time>2019-6-8T23:10:51Z</time></trkpt>
<trkpt lat="46.22109" lon="7.44592"><ele></ele><time>2019-6-8T23:10:54Z</time></trkpt>
<trkpt lat="46.22111" lon="7.44582"><ele></ele><time>2019-6-8T23:10:57Z</time></trkpt>
<trkpt lat="46.22114" lon="7.44561"><ele></ele><time>2019-6-8T23:11:0Z</time></trkpt>
<trkpt lat="46.22116" lon="7.44533"><ele></ele><time>2019-6-8T23:11:3Z</time></trkpt>
<trkpt lat="46.22119" lon="7.44497"><ele></ele><time>2019-6-8T23:11:6Z</time></trkpt>
<trkpt lat="46.22115" lon="7.4447"><ele></ele><time>2019-6-8T23:11:9Z</time></trkpt>
<trkpt lat="46.22106" lon="7.44445"><ele></ele><time>2019-6-8T23:11:12Z</time></trkpt>
<trkpt lat="46.22094" lon="7.44423"><ele></ele><time>2019-6-8T23:11:15Z</time></trkpt>
<trkpt lat="46.22082" lon="7.44404"><ele></ele><time>2019-6-8T23:11:18Z</time></trkpt>
<trkpt lat="46.2207" lon="7.44382"><ele></ele><time>2019-6-8T23:11:21Z</time></trkpt>
<trkpt lat="46.22057" lon="7.44364"><ele></ele><time>2019-6-8T23:11:24Z</time></trkpt>
<trkpt lat="46.22051" lon="7.44351"><ele></ele><time>2019-6-8T23:11:27Z</time></trkpt>
<trkpt lat="46.22045" lon="7.44343"><ele></ele><time>2019-6-8T23:11:30Z</time></trkpt>
<trkpt lat="46.22027" lon="7.44334"><ele></ele><time>2019-6-8T23:11:33Z</time></trkpt>
<trkpt lat="46.22001" lon="7.44316"><ele></ele><time>2019-6-8T23:11:36Z</time></trkpt>
<trkpt lat="46.21984" lon="7.44301"><ele></ele><time>2019-6-8T23:11:39Z</time></trkpt>
<trkpt lat="46.21968" lon="7.44285"><ele></ele><time>2019-6-8T23:11:42Z</time></trkpt>
<trkpt lat="46.21951" lon="7.44277"><ele></ele><time>2019-6-8T23:11:45Z</time></trkpt>
<trkpt lat="46.21932" lon="7.44278"><ele></ele><time>2019-6-8T23:11:48Z</time></trkpt>
<trkpt lat="46.21922" lon="7.44276"><ele></ele><time>2019-6-8T23:11:51Z</time></trkpt>
<trkpt lat="46.21913" lon="7.44278"><ele></ele><time>2019-6-8T23:11:54Z</time></trkpt>
<trkpt lat="46.21893" lon="7.44284"><ele></ele><time>2019-6-8T23:11:57Z</time></trkpt>
<trkpt lat="46.21869" lon="7.44262"><ele></ele><time>2019-6-8T23:12:0Z</time></trkpt>
<trkpt lat="46.21857" lon="7.44248"><ele></ele><time>2019-6-8T23:12:3Z</time></trkpt>
<trkpt lat="46.21849" lon="7.44242"><ele></ele><time>2019-6-8T23:12:6Z</time></trkpt>
<trkpt lat="46.2183" lon="7.44237"><ele></ele><time>2019-6-8T23:12:9Z</time></trkpt>
<trkpt lat="46.21818" lon="7.44239"><ele></ele><time>2019-6-8T23:12:12Z</time></trkpt>
<trkpt lat="46.21806" lon="7.44239"><ele></ele><time>2019-6-8T23:12:15Z</time></trkpt>
<trkpt lat="46.21786" lon="7.44237"><ele></ele><time>2019-6-8T23:12:18Z</time></trkpt>
<trkpt lat="46.21765" lon="7.44232"><ele></ele><time>2019-6-8T23:12:21Z</time></trkpt>
<trkpt lat="46.2175" lon="7.4423"><ele></ele><time>2019-6-8T23:12:24Z</time></trkpt>
<trkpt lat="46.21728" lon="7.44237"><ele></ele><time>2019-6-8T23:12:27Z</time></trkpt>
<trkpt lat="46.21714" lon="7.44249"><ele></ele><time>2019-6-8T23:12:30Z</time></trkpt>
<trkpt lat="46.21705" lon="7.44254"><ele></ele><time>2019-6-8T23:12:33Z</time></trkpt>
<trkpt lat="46.21697" lon="7.44258"><ele></ele><time>2019-6-8T23:12:36Z</time></trkpt>
<trkpt lat="46.21679" lon="7.44258"><ele></ele><time>2019-6-8T23:12:39Z</time></trkpt>
<trkpt lat="46.21654" lon="7.44254"><ele></ele><time>2019-6-8T23:12:42Z</time></trkpt>
<trkpt lat="46.21631" lon="7.4426"><ele></ele><time>2019-6-8T23:12:45Z</time></trkpt>
<trkpt lat="46.21625" lon="7.44264"><ele></ele><time>2019-6-8T23:12:48Z</time></trkpt>
<trkpt lat="46.21602" lon="7.4428"><ele></ele><time>2019-6-8T23:12:51Z</time></trkpt>
<trkpt lat="46.216" lon="7.44285"><ele></ele><time>2019-6-8T23:12:54Z</time></trkpt>
<trkpt lat="46.21587" lon="7.44302"><ele></ele><time>2019-6-8T23:12:57Z</time></trkpt>
<trkpt lat="46.21585" lon="7.44303"><ele></ele><time>2019-6-8T23:13:0Z</time></trkpt>
<trkpt lat="46.21574" lon="7.44306"><ele></ele><time>2019-6-8T23:13:3Z</time></trkpt>
<trkpt lat="46.21571" lon="7.44307"><ele></ele><time>2019-6-8T23:13:6Z</time></trkpt>
<trkpt lat="46.21565" lon="7.44311"><ele></ele><time>2019-6-8T23:13:9Z</time></trkpt>
<trkpt lat="46.21551" lon="7.44325"><ele></ele><time>2019-6-8T23:13:12Z</time></trkpt>
<trkpt lat="46.21544" lon="7.44333"><ele></ele><time>2019-6-8T23:13:15Z</time></trkpt>
<trkpt lat="46.21543" lon="7.44337"><ele></ele><time>2019-6-8T23:13:18Z</time></trkpt>
<trkpt lat="46.21541" lon="7.44345"><ele></ele><time>2019-6-8T23:13:21Z</time></trkpt>
<trkpt lat="46.2154" lon="7.4436"><ele></ele><time>2019-6-8T23:13:24Z</time></trkpt>
<trkpt lat="46.21536" lon="7.44386"><ele></ele><time>2019-6-8T23:13:27Z</time></trkpt>
<trkpt lat="46.21533" lon="7.44413"><ele></ele><time>2019-6-8T23:13:30Z</time></trkpt>
<trkpt lat="46.2153" lon="7.4444"><ele></ele><time>2019-6-8T23:13:33Z</time></trkpt>
<trkpt lat="46.21527" lon="7.44463"><ele></ele><time>2019-6-8T23:13:36Z</time></trkpt>
<trkpt lat="46.21522" lon="7.44489"><ele></ele><time>2019-6-8T23:13:39Z</time></trkpt>
<trkpt lat="46.21519" lon="7.44503"><ele></ele><time>2019-6-8T23:13:42Z</time></trkpt>
<trkpt lat="46.21511" lon="7.44523"><ele></ele><time>2019-6-8T23:13:45Z</time></trkpt>
<trkpt lat="46.21512" lon="7.4453"><ele></ele><time>2019-6-8T23:13:48Z</time></trkpt>
<trkpt lat="46.21512" lon="7.44529"><ele></ele><time>2019-6-8T23:13:51Z</time></trkpt>
<trkpt lat="46.21513" lon="7.44528"><ele></ele><time>2019-6-8T23:13:54Z</time></trkpt>
<trkpt lat="46.21511" lon="7.44528"><ele></ele><time>2019-6-8T23:13:57Z</time></trkpt>
<trkpt lat="46.21509" lon="7.44528"><ele></ele><time>2019-6-8T23:14:0Z</time></trkpt>
<trkpt lat="46.21509" lon="7.44528"><ele></ele><time>2019-6-8T23:14:3Z</time></trkpt>
<trkpt lat="46.21509" lon="7.44528"><ele></ele><time>2019-6-8T23:14:6Z</time></trkpt>
<trkpt lat="46.21509" lon="7.44527"><ele></ele><time>2019-6-8T23:14:9Z</time></trkpt>
<trkpt lat="46.21504" lon="7.44533"><ele></ele><time>2019-6-8T23:14:12Z</time></trkpt>
<trkpt lat="46.21498" lon="7.44558"><ele></ele><time>2019-6-8T23:14:15Z</time></trkpt>
<trkpt lat="46.21493" lon="7.44571"><ele></ele><time>2019-6-8T23:14:18Z</time></trkpt>
<trkpt lat="46.2149" lon="7.44583"><ele></ele><time>2019-6-8T23:14:21Z</time></trkpt>
<trkpt lat="46.21485" lon="7.44602"><ele></ele><time>2019-6-8T23:14:24Z</time></trkpt>
<trkpt lat="46.2148" lon="7.44622"><ele></ele><time>2019-6-8T23:14:27Z</time></trkpt>
<trkpt lat="46.21478" lon="7.44633"><ele></ele><time>2019-6-8T23:14:30Z</time></trkpt>
<trkpt lat="46.21477" lon="7.44636"><ele></ele><time>2019-6-8T23:14:33Z</time></trkpt>
<trkpt lat="46.21475" lon="7.44643"><ele></ele><time>2019-6-8T23:14:36Z</time></trkpt>
<trkpt lat="46.21472" lon="7.44653"><ele></ele><time>2019-6-8T23:14:39Z</time></trkpt>
<trkpt lat="46.21462" lon="7.44674"><ele></ele><time>2019-6-8T23:14:42Z</time></trkpt>
<trkpt lat="46.21454" lon="7.44686"><ele></ele><time>2019-6-8T23:14:45Z</time></trkpt>
<trkpt lat="46.21447" lon="7.44695"><ele></ele><time>2019-6-8T23:14:48Z</time></trkpt>
<trkpt lat="46.21432" lon="7.44713"><ele></ele><time>2019-6-8T23:14:51Z</time></trkpt>
<trkpt lat="46.21426" lon="7.4472"><ele></ele><time>2019-6-8T23:14:54Z</time></trkpt>
<trkpt lat="46.21412" lon="7.44739"><ele></ele><time>2019-6-8T23:14:57Z</time></trkpt>
<trkpt lat="46.21395" lon="7.44764"><ele></ele><time>2019-6-8T23:15:0Z</time></trkpt>
<trkpt lat="46.21381" lon="7.44781"><ele></ele><time>2019-6-8T23:15:3Z</time></trkpt>
<trkpt lat="46.21367" lon="7.44798"><ele></ele><time>2019-6-8T23:15:6Z</time></trkpt>
<trkpt lat="46.21351" lon="7.44812"><ele></ele><time>2019-6-8T23:15:9Z</time></trkpt>
<trkpt lat="46.21335" lon="7.44828"><ele></ele><time>2019-6-8T23:15:12Z</time></trkpt>
<trkpt lat="46.21325" lon="7.4485"><ele></ele><time>2019-6-8T23:15:15Z</time></trkpt>
<trkpt lat="46.21317" lon="7.44872"><ele></ele><time>2019-6-8T23:15:18Z</time></trkpt>
<trkpt lat="46.21297" lon="7.44899"><ele></ele><time>2019-6-8T23:15:21Z</time></trkpt>
<trkpt lat="46.21282" lon="7.44914"><ele></ele><time>2019-6-8T23:15:24Z</time></trkpt>
<trkpt lat="46.21273" lon="7.44925"><ele></ele><time>2019-6-8T23:15:27Z</time></trkpt>
<trkpt lat="46.2126" lon="7.44942"><ele></ele><time>2019-6-8T23:15:30Z</time></trkpt>
<trkpt lat="46.21247" lon="7.44959"><ele></ele><time>2019-6-8T23:15:33Z</time></trkpt>
<trkpt lat="46.21237" lon="7.44967"><ele></ele><time>2019-6-8T23:15:36Z</time></trkpt>
<trkpt lat="46.21222" lon="7.44981"><ele></ele><time>2019-6-8T23:15:39Z</time></trkpt>
<trkpt lat="46.21205" lon="7.44992"><ele></ele><time>2019-6-8T23:15:42Z</time></trkpt>
<trkpt lat="46.21187" lon="7.45001"><ele></ele><time>2019-6-8T23:15:45Z</time></trkpt>
<trkpt lat="46.21169" lon="7.45009"><ele></ele><time>2019-6-8T23:15:48Z</time></trkpt>
<trkpt lat="46.21153" lon="7.45022"><ele></ele><time>2019-6-8T23:15:51Z</time></trkpt>
<trkpt lat="46.21137" lon="7.45036"><ele></ele><time>2019-6-8T23:15:54Z</time></trkpt>
<trkpt lat="46.21133" lon="7.45039"><ele></ele><time>2019-6-8T23:15:57Z</time></trkpt>
<trkpt lat="46.21126" lon="7.45045"><ele></ele><time>2019-6-8T23:16:0Z</time></trkpt>
<trkpt lat="46.21121" lon="7.45049"><ele></ele><time>2019-6-8T23:16:3Z</time></trkpt>
<trkpt lat="46.21108" lon="7.45057"><ele></ele><time>2019-6-8T23:16:6Z</time></trkpt>
<trkpt lat="46.21106" lon="7.45059"><ele></ele><time>2019-6-8T23:16:9Z</time></trkpt>
<trkpt lat="46.21089" lon="7.45072"><ele></ele><time>2019-6-8T23:16:12Z</time></trkpt>
<trkpt lat="46.21073" lon="7.45087"><ele></ele><time>2019-6-8T23:16:15Z</time></trkpt>
<trkpt lat="46.21069" lon="7.45092"><ele></ele><time>2019-6-8T23:16:18Z</time></trkpt>
<trkpt lat="46.21054" lon="7.45107"><ele></ele><time>2019-6-8T23:16:21Z</time></trkpt>
<trkpt lat="46.21049" lon="7.45113"><ele></ele><time>2019-6-8T23:16:24Z</time></trkpt>
<trkpt lat="46.21043" lon="7.45117"><ele></ele><time>2019-6-8T23:16:27Z</time></trkpt>
<trkpt lat="46.21026" lon="7.45127"><ele></ele><time>2019-6-8T23:16:30Z</time></trkpt>
<trkpt lat="46.21015" lon="7.45131"><ele></ele><time>2019-6-8T23:16:33Z</time></trkpt>
<trkpt lat="46.21005" lon="7.45133"><ele></ele><time>2019-6-8T23:16:36Z</time></trkpt>
<trkpt lat="46.20991" lon="7.45137"><ele></ele><time>2019-6-8T23:16:39Z</time></trkpt>
<trkpt lat="46.20986" lon="7.45138"><ele></ele><time>2019-6-8T23:16:42Z</time></trkpt>
<trkpt lat="46.20976" lon="7.45139"><ele></ele><time>2019-6-8T23:16:45Z</time></trkpt>
<trkpt lat="46.20968" lon="7.45141"><ele></ele><time>2019-6-8T23:16:48Z</time></trkpt>
<trkpt lat="46.20963" lon="7.45142"><ele></ele><time>2019-6-8T23:16:51Z</time></trkpt>
<trkpt lat="46.20945" lon="7.45146"><ele></ele><time>2019-6-8T23:16:54Z</time></trkpt>
<trkpt lat="46.20935" lon="7.45148"><ele></ele><time>2019-6-8T23:16:57Z</time></trkpt>
<trkpt lat="46.2093" lon="7.45147"><ele></ele><time>2019-6-8T23:17:0Z</time></trkpt>
<trkpt lat="46.20924" lon="7.45148"><ele></ele><time>2019-6-8T23:17:3Z</time></trkpt>
<trkpt lat="46.20916" lon="7.4515"><ele></ele><time>2019-6-8T23:17:6Z</time></trkpt>
<trkpt lat="46.20911" lon="7.45151"><ele></ele><time>2019-6-8T23:17:9Z</time></trkpt>
<trkpt lat="46.20892" lon="7.45152"><ele></ele><time>2019-6-8T23:17:12Z</time></trkpt>
<trkpt lat="46.20887" lon="7.45152"><ele></ele><time>2019-6-8T23:17:15Z</time></trkpt>
<trkpt lat="46.20869" lon="7.45151"><ele></ele><time>2019-6-8T23:17:18Z</time></trkpt>
<trkpt lat="46.20864" lon="7.45151"><ele></ele><time>2019-6-8T23:17:21Z</time></trkpt>
<trkpt lat="46.2085" lon="7.45154"><ele></ele><time>2019-6-8T23:17:24Z</time></trkpt>
<trkpt lat="46.20845" lon="7.45154"><ele></ele><time>2019-6-8T23:17:27Z</time></trkpt>
<trkpt lat="46.20834" lon="7.45156"><ele></ele><time>2019-6-8T23:17:30Z</time></trkpt>
<trkpt lat="46.2083" lon="7.45156"><ele></ele><time>2019-6-8T23:17:33Z</time></trkpt>
<trkpt lat="46.20816" lon="7.45151"><ele></ele><time>2019-6-8T23:17:36Z</time></trkpt>
<trkpt lat="46.20813" lon="7.4515"><ele></ele><time>2019-6-8T23:17:39Z</time></trkpt>
<trkpt lat="46.20798" lon="7.45147"><ele></ele><time>2019-6-8T23:17:42Z</time></trkpt>
<trkpt lat="46.20797" lon="7.45146"><ele></ele><time>2019-6-8T23:17:45Z</time></trkpt>
<trkpt lat="46.20791" lon="7.45145"><ele></ele><time>2019-6-8T23:17:48Z</time></trkpt>
<trkpt lat="46.20785" lon="7.45147"><ele></ele><time>2019-6-8T23:17:51Z</time></trkpt>
<trkpt lat="46.20779" lon="7.45148"><ele></ele><time>2019-6-8T23:17:54Z</time></trkpt>
<trkpt lat="46.20761" lon="7.45149"><ele></ele><time>2019-6-8T23:17:57Z</time></trkpt>
<trkpt lat="46.20742" lon="7.45149"><ele></ele><time>2019-6-8T23:18:0Z</time></trkpt>
<trkpt lat="46.20718" lon="7.45155"><ele></ele><time>2019-6-8T23:18:3Z</time></trkpt>
<trkpt lat="46.20713" lon="7.45156"><ele></ele><time>2019-6-8T23:18:6Z</time></trkpt>
<trkpt lat="46.2071" lon="7.45156"><ele></ele><time>2019-6-8T23:18:9Z</time></trkpt>
<trkpt lat="46.20709" lon="7.45156"><ele></ele><time>2019-6-8T23:18:12Z</time></trkpt>
<trkpt lat="46.20705" lon="7.45155"><ele></ele><time>2019-6-8T23:18:15Z</time></trkpt>
<trkpt lat="46.20698" lon="7.45156"><ele></ele><time>2019-6-8T23:18:18Z</time></trkpt>
<trkpt lat="46.2069" lon="7.45159"><ele></ele><time>2019-6-8T23:18:21Z</time></trkpt>
<trkpt lat="46.20687" lon="7.45159"><ele></ele><time>2019-6-8T23:18:24Z</time></trkpt>
<trkpt lat="46.2067" lon="7.45167"><ele></ele><time>2019-6-8T23:18:27Z</time></trkpt>
<trkpt lat="46.20657" lon="7.45176"><ele></ele><time>2019-6-8T23:18:30Z</time></trkpt>
<trkpt lat="46.20651" lon="7.45181"><ele></ele><time>2019-6-8T23:18:33Z</time></trkpt>
<trkpt lat="46.20641" lon="7.45186"><ele></ele><time>2019-6-8T23:18:36Z</time></trkpt>
<trkpt lat="46.20623" lon="7.45194"><ele></ele><time>2019-6-8T23:18:39Z</time></trkpt>
<trkpt lat="46.2062" lon="7.45196"><ele></ele><time>2019-6-8T23:18:42Z</time></trkpt>
<trkpt lat="46.20614" lon="7.45197"><ele></ele><time>2019-6-8T23:18:45Z</time></trkpt>
<trkpt lat="46.20591" lon="7.45199"><ele></ele><time>2019-6-8T23:18:48Z</time></trkpt>
<trkpt lat="46.20572" lon="7.45193"><ele></ele><time>2019-6-8T23:18:51Z</time></trkpt>
<trkpt lat="46.20559" lon="7.4519"><ele></ele><time>2019-6-8T23:18:54Z</time></trkpt>
<trkpt lat="46.20549" lon="7.4519"><ele></ele><time>2019-6-8T23:18:57Z</time></trkpt>
<trkpt lat="46.20547" lon="7.4519"><ele></ele><time>2019-6-8T23:19:0Z</time></trkpt>
<trkpt lat="46.20524" lon="7.45188"><ele></ele><time>2019-6-8T23:19:3Z</time></trkpt>
<trkpt lat="46.20517" lon="7.45185"><ele></ele><time>2019-6-8T23:19:6Z</time></trkpt>
<trkpt lat="46.20512" lon="7.45183"><ele></ele><time>2019-6-8T23:19:9Z</time></trkpt>
<trkpt lat="46.20508" lon="7.45181"><ele></ele><time>2019-6-8T23:19:12Z</time></trkpt>
<trkpt lat="46.20492" lon="7.45179"><ele></ele><time>2019-6-8T23:19:15Z</time></trkpt>
<trkpt lat="46.20473" lon="7.45181"><ele></ele><time>2019-6-8T23:19:18Z</time></trkpt>
<trkpt lat="46.20457" lon="7.45184"><ele></ele><time>2019-6-8T23:19:21Z</time></trkpt>
<trkpt lat="46.2045" lon="7.45186"><ele></ele><time>2019-6-8T23:19:24Z</time></trkpt>
<trkpt lat="46.20432" lon="7.45187"><ele></ele><time>2019-6-8T23:19:27Z</time></trkpt>
<trkpt lat="46.20423" lon="7.45187"><ele></ele><time>2019-6-8T23:19:30Z</time></trkpt>
<trkpt lat="46.20405" lon="7.45194"><ele></ele><time>2019-6-8T23:19:33Z</time></trkpt>
<trkpt lat="46.20393" lon="7.45197"><ele></ele><time>2019-6-8T23:19:36Z</time></trkpt>
<trkpt lat="46.20371" lon="7.45202"><ele></ele><time>2019-6-8T23:19:39Z</time></trkpt>
<trkpt lat="46.20366" lon="7.45201"><ele></ele><time>2019-6-8T23:19:42Z</time></trkpt>
<trkpt lat="46.20364" lon="7.45202"><ele></ele><time>2019-6-8T23:19:45Z</time></trkpt>
<trkpt lat="46.20365" lon="7.45204"><ele></ele><time>2019-6-8T23:19:48Z</time></trkpt>
<trkpt lat="46.20365" lon="7.45202"><ele></ele><time>2019-6-8T23:19:51Z</time></trkpt>
<trkpt lat="46.20368" lon="7.45207"><ele></ele><time>2019-6-8T23:19:54Z</time></trkpt>
<trkpt lat="46.2037" lon="7.45208"><ele></ele><time>2019-6-8T23:19:57Z</time></trkpt>
<trkpt lat="46.20371" lon="7.45208"><ele></ele><time>2019-6-8T23:20:0Z</time></trkpt>
<trkpt lat="46.20369" lon="7.45207"><ele></ele><time>2019-6-8T23:20:3Z</time></trkpt>
<trkpt lat="46.20369" lon="7.45206"><ele></ele><time>2019-6-8T23:20:6Z</time></trkpt>
<trkpt lat="46.20371" lon="7.45204"><ele></ele><time>2019-6-8T23:20:9Z</time></trkpt>
<trkpt lat="46.20353" lon="7.45197"><ele></ele><time>2019-6-8T23:20:12Z</time></trkpt>
<trkpt lat="46.20345" lon="7.45189"><ele></ele><time>2019-6-8T23:20:15Z</time></trkpt>
<trkpt lat="46.20337" lon="7.4516"><ele></ele><time>2019-6-8T23:20:18Z</time></trkpt>
<trkpt lat="46.20336" lon="7.45143"><ele></ele><time>2019-6-8T23:20:21Z</time></trkpt>
<trkpt lat="46.20336" lon="7.45117"><ele></ele><time>2019-6-8T23:20:24Z</time></trkpt>
<trkpt lat="46.20333" lon="7.45113"><ele></ele><time>2019-6-8T23:20:27Z</time></trkpt>
<trkpt lat="46.20321" lon="7.45089"><ele></ele><time>2019-6-8T23:20:30Z</time></trkpt>
<trkpt lat="46.20321" lon="7.45063"><ele></ele><time>2019-6-8T23:20:33Z</time></trkpt>
<trkpt lat="46.20328" lon="7.45057"><ele></ele><time>2019-6-8T23:20:36Z</time></trkpt>
<trkpt lat="46.20329" lon="7.45056"><ele></ele><time>2019-6-8T23:20:39Z</time></trkpt>
<trkpt lat="46.2033" lon="7.45055"><ele></ele><time>2019-6-8T23:20:42Z</time></trkpt>
<trkpt lat="46.20336" lon="7.45045"><ele></ele><time>2019-6-8T23:20:45Z</time></trkpt>
<trkpt lat="46.20333" lon="7.45029"><ele></ele><time>2019-6-8T23:20:48Z</time></trkpt>
<trkpt lat="46.20332" lon="7.45021"><ele></ele><time>2019-6-8T23:20:51Z</time></trkpt>
<trkpt lat="46.20329" lon="7.45013"><ele></ele><time>2019-6-8T23:20:54Z</time></trkpt>
<trkpt lat="46.20322" lon="7.44992"><ele></ele><time>2019-6-8T23:20:57Z</time></trkpt>
<trkpt lat="46.20319" lon="7.44985"><ele></ele><time>2019-6-8T23:21:0Z</time></trkpt>
<trkpt lat="46.20306" lon="7.44961"><ele></ele><time>2019-6-8T23:21:3Z</time></trkpt>
<trkpt lat="46.20293" lon="7.44939"><ele></ele><time>2019-6-8T23:21:6Z</time></trkpt>
<trkpt lat="46.20285" lon="7.44928"><ele></ele><time>2019-6-8T23:21:9Z</time></trkpt>
<trkpt lat="46.20271" lon="7.4491"><ele></ele><time>2019-6-8T23:21:12Z</time></trkpt>
<trkpt lat="46.2027" lon="7.44907"><ele></ele><time>2019-6-8T23:21:15Z</time></trkpt>
<trkpt lat="46.20254" lon="7.44889"><ele></ele><time>2019-6-8T23:21:18Z</time></trkpt>
<trkpt lat="46.20248" lon="7.44879"><ele></ele><time>2019-6-8T23:21:21Z</time></trkpt>
<trkpt lat="46.20241" lon="7.4487"><ele></ele><time>2019-6-8T23:21:24Z</time></trkpt>
<trkpt lat="46.20222" lon="7.44863"><ele></ele><time>2019-6-8T23:21:27Z</time></trkpt>
<trkpt lat="46.20226" lon="7.44846"><ele></ele><time>2019-6-8T23:21:30Z</time></trkpt>
<trkpt lat="46.20242" lon="7.44825"><ele></ele><time>2019-6-8T23:21:33Z</time></trkpt>
<trkpt lat="46.20261" lon="7.44819"><ele></ele><time>2019-6-8T23:21:36Z</time></trkpt>
<trkpt lat="46.20269" lon="7.44818"><ele></ele><time>2019-6-8T23:21:39Z</time></trkpt>
<trkpt lat="46.20292" lon="7.44812"><ele></ele><time>2019-6-8T23:21:42Z</time></trkpt>
<trkpt lat="46.20296" lon="7.44812"><ele></ele><time>2019-6-8T23:21:45Z</time></trkpt>
<trkpt lat="46.203" lon="7.44812"><ele></ele><time>2019-6-8T23:21:48Z</time></trkpt>
<trkpt lat="46.20306" lon="7.44815"><ele></ele><time>2019-6-8T23:21:51Z</time></trkpt>
<trkpt lat="46.20325" lon="7.44826"><ele></ele><time>2019-6-8T23:21:54Z</time></trkpt>
<trkpt lat="46.20342" lon="7.44842"><ele></ele><time>2019-6-8T23:21:57Z</time></trkpt>
<trkpt lat="46.2035" lon="7.44846"><ele></ele><time>2019-6-8T23:22:0Z</time></trkpt>
<trkpt lat="46.20355" lon="7.4484"><ele></ele><time>2019-6-8T23:22:3Z</time></trkpt>
<trkpt lat="46.2034" lon="7.44819"><ele></ele><time>2019-6-8T23:22:6Z</time></trkpt>
<trkpt lat="46.20326" lon="7.44802"><ele></ele><time>2019-6-8T23:22:9Z</time></trkpt>
<trkpt lat="46.20309" lon="7.44784"><ele></ele><time>2019-6-8T23:22:12Z</time></trkpt>
<trkpt lat="46.20296" lon="7.44774"><ele></ele><time>2019-6-8T23:22:15Z</time></trkpt>
<trkpt lat="46.20282" lon="7.44768"><ele></ele><time>2019-6-8T23:22:18Z</time></trkpt>
<trkpt lat="46.20275" lon="7.44765"><ele></ele><time>2019-6-8T23:22:21Z</time></trkpt>
<trkpt lat="46.20262" lon="7.44759"><ele></ele><time>2019-6-8T23:22:24Z</time></trkpt>
<trkpt lat="46.20244" lon="7.44751"><ele></ele><time>2019-6-8T23:22:27Z</time></trkpt>
<trkpt lat="46.20232" lon="7.44751"><ele></ele><time>2019-6-8T23:22:30Z</time></trkpt>
<trkpt lat="46.20226" lon="7.44751"><ele></ele><time>2019-6-8T23:22:33Z</time></trkpt>
<trkpt lat="46.20221" lon="7.44751"><ele></ele><time>2019-6-8T23:22:36Z</time></trkpt>
<trkpt lat="46.20202" lon="7.44765"><ele></ele><time>2019-6-8T23:22:39Z</time></trkpt>
<trkpt lat="46.20196" lon="7.44769"><ele></ele><time>2019-6-8T23:22:42Z</time></trkpt>
<trkpt lat="46.2019" lon="7.44773"><ele></ele><time>2019-6-8T23:22:45Z</time></trkpt>
<trkpt lat="46.2017" lon="7.44779"><ele></ele><time>2019-6-8T23:22:48Z</time></trkpt>
<trkpt lat="46.20151" lon="7.4479"><ele></ele><time>2019-6-8T23:22:51Z</time></trkpt>
<trkpt lat="46.20132" lon="7.44798"><ele></ele><time>2019-6-8T23:22:54Z</time></trkpt>
<trkpt lat="46.20108" lon="7.44801"><ele></ele><time>2019-6-8T23:22:57Z</time></trkpt>
<trkpt lat="46.20095" lon="7.4482"><ele></ele><time>2019-6-8T23:23:0Z</time></trkpt>
<trkpt lat="46.20093" lon="7.44837"><ele></ele><time>2019-6-8T23:23:3Z</time></trkpt>
<trkpt lat="46.2009" lon="7.44855"><ele></ele><time>2019-6-8T23:23:6Z</time></trkpt>
<trkpt lat="46.2008" lon="7.4488"><ele></ele><time>2019-6-8T23:23:9Z</time></trkpt>
<trkpt lat="46.20072" lon="7.44897"><ele></ele><time>2019-6-8T23:23:12Z</time></trkpt>
<trkpt lat="46.20063" lon="7.44916"><ele></ele><time>2019-6-8T23:23:15Z</time></trkpt>
<trkpt lat="46.20052" lon="7.4493"><ele></ele><time>2019-6-8T23:23:18Z</time></trkpt>
<trkpt lat="46.20036" lon="7.44949"><ele></ele><time>2019-6-8T23:23:21Z</time></trkpt>
<trkpt lat="46.20025" lon="7.44973"><ele></ele><time>2019-6-8T23:23:24Z</time></trkpt>
<trkpt lat="46.20018" lon="7.44987"><ele></ele><time>2019-6-8T23:23:27Z</time></trkpt>
<trkpt lat="46.20002" lon="7.44989"><ele></ele><time>2019-6-8T23:23:30Z</time></trkpt>
<trkpt lat="46.20009" lon="7.44963"><ele></ele><time>2019-6-8T23:23:33Z</time></trkpt>
<trkpt lat="46.20012" lon="7.44956"><ele></ele><time>2019-6-8T23:23:36Z</time></trkpt>
<trkpt lat="46.20016" lon="7.44949"><ele></ele><time>2019-6-8T23:23:39Z</time></trkpt>
<trkpt lat="46.20024" lon="7.44921"><ele></ele><time>2019-6-8T23:23:42Z</time></trkpt>
<trkpt lat="46.20025" lon="7.44908"><ele></ele><time>2019-6-8T23:23:45Z</time></trkpt>
<trkpt lat="46.20026" lon="7.44883"><ele></ele><time>2019-6-8T23:23:48Z</time></trkpt>
<trkpt lat="46.20023" lon="7.44856"><ele></ele><time>2019-6-8T23:23:51Z</time></trkpt>
<trkpt lat="46.20016" lon="7.44822"><ele></ele><time>2019-6-8T23:23:54Z</time></trkpt>
<trkpt lat="46.20006" lon="7.44793"><ele></ele><time>2019-6-8T23:23:57Z</time></trkpt>
<trkpt lat="46.20007" lon="7.44769"><ele></ele><time>2019-6-8T23:24:0Z</time></trkpt>
<trkpt lat="46.20011" lon="7.44753"><ele></ele><time>2019-6-8T23:24:3Z</time></trkpt>
<trkpt lat="46.20014" lon="7.44745"><ele></ele><time>2019-6-8T23:24:6Z</time></trkpt>
<trkpt lat="46.20023" lon="7.44717"><ele></ele><time>2019-6-8T23:24:9Z</time></trkpt>
<trkpt lat="46.2003" lon="7.44682"><ele></ele><time>2019-6-8T23:24:12Z</time></trkpt>
<trkpt lat="46.20036" lon="7.44657"><ele></ele><time>2019-6-8T23:24:15Z</time></trkpt>
<trkpt lat="46.20037" lon="7.44629"><ele></ele><time>2019-6-8T23:24:18Z</time></trkpt>
<trkpt lat="46.20038" lon="7.44603"><ele></ele><time>2019-6-8T23:24:21Z</time></trkpt>
<trkpt lat="46.2004" lon="7.44579"><ele></ele><time>2019-6-8T23:24:24Z</time></trkpt>
<trkpt lat="46.20049" lon="7.44546"><ele></ele><time>2019-6-8T23:24:27Z</time></trkpt>
<trkpt lat="46.20061" lon="7.44516"><ele></ele><time>2019-6-8T23:24:30Z</time></trkpt>
<trkpt lat="46.20065" lon="7.44507"><ele></ele><time>2019-6-8T23:24:33Z</time></trkpt>
<trkpt lat="46.20083" lon="7.44482"><ele></ele><time>2019-6-8T23:24:36Z</time></trkpt>
<trkpt lat="46.20089" lon="7.44474"><ele></ele><time>2019-6-8T23:24:39Z</time></trkpt>
<trkpt lat="46.20101" lon="7.4446"><ele></ele><time>2019-6-8T23:24:42Z</time></trkpt>
<trkpt lat="46.20109" lon="7.4443"><ele></ele><time>2019-6-8T23:24:45Z</time></trkpt>
<trkpt lat="46.20109" lon="7.44419"><ele></ele><time>2019-6-8T23:24:48Z</time></trkpt>
<trkpt lat="46.20109" lon="7.44409"><ele></ele><time>2019-6-8T23:24:51Z</time></trkpt>
<trkpt lat="46.20116" lon="7.44381"><ele></ele><time>2019-6-8T23:24:54Z</time></trkpt>
<trkpt lat="46.2012" lon="7.44372"><ele></ele><time>2019-6-8T23:24:57Z</time></trkpt>
<trkpt lat="46.20128" lon="7.44353"><ele></ele><time>2019-6-8T23:25:0Z</time></trkpt>
<trkpt lat="46.20141" lon="7.44326"><ele></ele><time>2019-6-8T23:25:3Z</time></trkpt>
<trkpt lat="46.20145" lon="7.44317"><ele></ele><time>2019-6-8T23:25:6Z</time></trkpt>
<trkpt lat="46.20149" lon="7.44309"><ele></ele><time>2019-6-8T23:25:9Z</time></trkpt>
<trkpt lat="46.20158" lon="7.44287"><ele></ele><time>2019-6-8T23:25:12Z</time></trkpt>
<trkpt lat="46.20167" lon="7.44265"><ele></ele><time>2019-6-8T23:25:15Z</time></trkpt>
<trkpt lat="46.20172" lon="7.44257"><ele></ele><time>2019-6-8T23:25:18Z</time></trkpt>
<trkpt lat="46.20177" lon="7.4425"><ele></ele><time>2019-6-8T23:25:21Z</time></trkpt>
<trkpt lat="46.20196" lon="7.44238"><ele></ele><time>2019-6-8T23:25:24Z</time></trkpt>
<trkpt lat="46.20218" lon="7.44237"><ele></ele><time>2019-6-8T23:25:27Z</time></trkpt>
<trkpt lat="46.20238" lon="7.44222"><ele></ele><time>2019-6-8T23:25:30Z</time></trkpt>
<trkpt lat="46.20251" lon="7.442"><ele></ele><time>2019-6-8T23:25:33Z</time></trkpt>
<trkpt lat="46.20271" lon="7.44207"><ele></ele><time>2019-6-8T23:25:36Z</time></trkpt>
<trkpt lat="46.20274" lon="7.4421"><ele></ele><time>2019-6-8T23:25:39Z</time></trkpt>
<trkpt lat="46.20277" lon="7.44213"><ele></ele><time>2019-6-8T23:25:42Z</time></trkpt>
<trkpt lat="46.20294" lon="7.44234"><ele></ele><time>2019-6-8T23:25:45Z</time></trkpt>
<trkpt lat="46.20298" lon="7.44238"><ele></ele><time>2019-6-8T23:25:48Z</time></trkpt>
<trkpt lat="46.20315" lon="7.4425"><ele></ele><time>2019-6-8T23:25:51Z</time></trkpt>
<trkpt lat="46.2032" lon="7.44255"><ele></ele><time>2019-6-8T23:25:54Z</time></trkpt>
<trkpt lat="46.20338" lon="7.44271"><ele></ele><time>2019-6-8T23:25:57Z</time></trkpt>
<trkpt lat="46.20343" lon="7.44278"><ele></ele><time>2019-6-8T23:26:0Z</time></trkpt>
<trkpt lat="46.2036" lon="7.443"><ele></ele><time>2019-6-8T23:26:3Z</time></trkpt>
<trkpt lat="46.20382" lon="7.44312"><ele></ele><time>2019-6-8T23:26:6Z</time></trkpt>
<trkpt lat="46.20389" lon="7.44318"><ele></ele><time>2019-6-8T23:26:9Z</time></trkpt>
<trkpt lat="46.20408" lon="7.4434"><ele></ele><time>2019-6-8T23:26:12Z</time></trkpt>
<trkpt lat="46.2042" lon="7.44358"><ele></ele><time>2019-6-8T23:26:15Z</time></trkpt>
<trkpt lat="46.20432" lon="7.4438"><ele></ele><time>2019-6-8T23:26:18Z</time></trkpt>
<trkpt lat="46.20446" lon="7.44412"><ele></ele><time>2019-6-8T23:26:21Z</time></trkpt>
<trkpt lat="46.20468" lon="7.4443"><ele></ele><time>2019-6-8T23:26:24Z</time></trkpt>
<trkpt lat="46.20478" lon="7.44433"><ele></ele><time>2019-6-8T23:26:27Z</time></trkpt>
<trkpt lat="46.20496" lon="7.4444"><ele></ele><time>2019-6-8T23:26:30Z</time></trkpt>
<trkpt lat="46.20505" lon="7.44446"><ele></ele><time>2019-6-8T23:26:33Z</time></trkpt>
<trkpt lat="46.20522" lon="7.44458"><ele></ele><time>2019-6-8T23:26:36Z</time></trkpt>
<trkpt lat="46.20547" lon="7.44462"><ele></ele><time>2019-6-8T23:26:39Z</time></trkpt>
<trkpt lat="46.20565" lon="7.4446"><ele></ele><time>2019-6-8T23:26:42Z</time></trkpt>
<trkpt lat="46.20584" lon="7.44458"><ele></ele><time>2019-6-8T23:26:45Z</time></trkpt>
<trkpt lat="46.20604" lon="7.44456"><ele></ele><time>2019-6-8T23:26:48Z</time></trkpt>
<trkpt lat="46.20614" lon="7.44455"><ele></ele><time>2019-6-8T23:26:51Z</time></trkpt>
<trkpt lat="46.20632" lon="7.44453"><ele></ele><time>2019-6-8T23:26:54Z</time></trkpt>
<trkpt lat="46.20658" lon="7.4445"><ele></ele><time>2019-6-8T23:26:57Z</time></trkpt>
<trkpt lat="46.2068" lon="7.44449"><ele></ele><time>2019-6-8T23:27:0Z</time></trkpt>
<trkpt lat="46.20694" lon="7.44451"><ele></ele><time>2019-6-8T23:27:3Z</time></trkpt>
<trkpt lat="46.20701" lon="7.44455"><ele></ele><time>2019-6-8T23:27:6Z</time></trkpt>
<trkpt lat="46.20718" lon="7.44469"><ele></ele><time>2019-6-8T23:27:9Z</time></trkpt>
<trkpt lat="46.20723" lon="7.44474"><ele></ele><time>2019-6-8T23:27:12Z</time></trkpt>
<trkpt lat="46.20727" lon="7.44477"><ele></ele><time>2019-6-8T23:27:15Z</time></trkpt>
<trkpt lat="46.20738" lon="7.44483"><ele></ele><time>2019-6-8T23:27:18Z</time></trkpt>
<trkpt lat="46.20749" lon="7.44489"><ele></ele><time>2019-6-8T23:27:21Z</time></trkpt>
<trkpt lat="46.20765" lon="7.44502"><ele></ele><time>2019-6-8T23:27:24Z</time></trkpt>
<trkpt lat="46.20782" lon="7.44516"><ele></ele><time>2019-6-8T23:27:27Z</time></trkpt>
<trkpt lat="46.20799" lon="7.44527"><ele></ele><time>2019-6-8T23:27:30Z</time></trkpt>
<trkpt lat="46.20813" lon="7.44537"><ele></ele><time>2019-6-8T23:27:33Z</time></trkpt>
<trkpt lat="46.2082" lon="7.44541"><ele></ele><time>2019-6-8T23:27:36Z</time></trkpt>
<trkpt lat="46.20822" lon="7.44543"><ele></ele><time>2019-6-8T23:27:39Z</time></trkpt>
<trkpt lat="46.20825" lon="7.44545"><ele></ele><time>2019-6-8T23:27:42Z</time></trkpt>
<trkpt lat="46.20827" lon="7.44546"><ele></ele><time>2019-6-8T23:27:45Z</time></trkpt>
<trkpt lat="46.20844" lon="7.44557"><ele></ele><time>2019-6-8T23:27:48Z</time></trkpt>
<trkpt lat="46.20856" lon="7.44565"><ele></ele><time>2019-6-8T23:27:51Z</time></trkpt>
<trkpt lat="46.20867" lon="7.44573"><ele></ele><time>2019-6-8T23:27:54Z</time></trkpt>
<trkpt lat="46.20875" lon="7.44578"><ele></ele><time>2019-6-8T23:27:57Z</time></trkpt>
<trkpt lat="46.20881" lon="7.44578"><ele></ele><time>2019-6-8T23:28:0Z</time></trkpt>
<trkpt lat="46.20897" lon="7.44573"><ele></ele><time>2019-6-8T23:28:3Z</time></trkpt>
<trkpt lat="46.20907" lon="7.44573"><ele></ele><time>2019-6-8T23:28:6Z</time></trkpt>
<trkpt lat="46.20923" lon="7.44579"><ele></ele><time>2019-6-8T23:28:9Z</time></trkpt>
<trkpt lat="46.20935" lon="7.44575"><ele></ele><time>2019-6-8T23:28:12Z</time></trkpt>
<trkpt lat="46.20951" lon="7.44554"><ele></ele><time>2019-6-8T23:28:15Z</time></trkpt>
<trkpt lat="46.20957" lon="7.44545"><ele></ele><time>2019-6-8T23:28:18Z</time></trkpt>
<trkpt lat="46.2097" lon="7.4453"><ele></ele><time>2019-6-8T23:28:21Z</time></trkpt>
<trkpt lat="46.20988" lon="7.44517"><ele></ele><time>2019-6-8T23:28:24Z</time></trkpt>
<trkpt lat="46.21002" lon="7.44499"><ele></ele><time>2019-6-8T23:28:27Z</time></trkpt>
<trkpt lat="46.21009" lon="7.44492"><ele></ele><time>2019-6-8T23:28:30Z</time></trkpt>
<trkpt lat="46.21006" lon="7.44492"><ele></ele><time>2019-6-8T23:28:33Z</time></trkpt>
<trkpt lat="46.21003" lon="7.44494"><ele></ele><time>2019-6-8T23:28:36Z</time></trkpt>
<trkpt lat="46.20988" lon="7.44493"><ele></ele><time>2019-6-8T23:28:39Z</time></trkpt>
<trkpt lat="46.20991" lon="7.44481"><ele></ele><time>2019-6-8T23:28:42Z</time></trkpt>
<trkpt lat="46.20991" lon="7.4448"><ele></ele><time>2019-6-8T23:28:45Z</time></trkpt>
<trkpt lat="46.20991" lon="7.4448"><ele></ele><time>2019-6-8T23:28:48Z</time></trkpt>
<trkpt lat="46.20991" lon="7.4448"><ele></ele><time>2019-6-8T23:28:51Z</time></trkpt>
<trkpt lat="46.20992" lon="7.4448"><ele></ele><time>2019-6-8T23:28:54Z</time></trkpt>
<trkpt lat="46.20992" lon="7.4448"><ele></ele><time>2019-6-8T23:28:57Z</time></trkpt>
<trkpt lat="46.20991" lon="7.44479"><ele></ele><time>2019-6-8T23:29:0Z</time></trkpt>
<trkpt lat="46.20992" lon="7.4448"><ele></ele><time>2019-6-8T23:29:3Z</time></trkpt>
<trkpt lat="46.20992" lon="7.4448"><ele></ele><time>2019-6-8T23:29:6Z</time></trkpt>
<trkpt lat="46.2099" lon="7.44479"><ele></ele><time>2019-6-8T23:29:9Z</time></trkpt>
<trkpt lat="46.20992" lon="7.44478"><ele></ele><time>2019-6-8T23:29:12Z</time></trkpt>
<trkpt lat="46.20996" lon="7.4448"><ele></ele><time>2019-6-8T23:29:15Z</time></trkpt>
<trkpt lat="46.20994" lon="7.44481"><ele></ele><time>2019-6-8T23:29:18Z</time></trkpt>
<trkpt lat="46.20993" lon="7.44482"><ele></ele><time>2019-6-8T23:29:21Z</time></trkpt>
<trkpt lat="46.20993" lon="7.44482"><ele></ele><time>2019-6-8T23:29:24Z</time></trkpt>
<trkpt lat="46.20994" lon="7.44482"><ele></ele><time>2019-6-8T23:29:27Z</time></trkpt>
<trkpt lat="46.20995" lon="7.44482"><ele></ele><time>2019-6-8T23:29:30Z</time></trkpt>
<trkpt lat="46.20998" lon="7.44484"><ele></ele><time>2019-6-8T23:29:33Z</time></trkpt>
<trkpt lat="46.21005" lon="7.44485"><ele></ele><time>2019-6-8T23:29:36Z</time></trkpt>
<trkpt lat="46.21005" lon="7.44486"><ele></ele><time>2019-6-8T23:29:39Z</time></trkpt>
<trkpt lat="46.21007" lon="7.44486"><ele></ele><time>2019-6-8T23:29:42Z</time></trkpt>
<trkpt lat="46.21008" lon="7.44486"><ele></ele><time>2019-6-8T23:29:45Z</time></trkpt>
<trkpt lat="46.21009" lon="7.44489"><ele></ele><time>2019-6-8T23:29:48Z</time></trkpt>
<trkpt lat="46.2101" lon="7.4449"><ele></ele><time>2019-6-8T23:29:51Z</time></trkpt>
<trkpt lat="46.21008" lon="7.44494"><ele></ele><time>2019-6-8T23:29:54Z</time></trkpt>
<trkpt lat="46.20992" lon="7.44514"><ele></ele><time>2019-6-8T23:29:57Z</time></trkpt>
<trkpt lat="46.2099" lon="7.44516"><ele></ele><time>2019-6-8T23:30:0Z</time></trkpt>
<trkpt lat="46.20979" lon="7.44525"><ele></ele><time>2019-6-8T23:30:3Z</time></trkpt>
<trkpt lat="46.20964" lon="7.44537"><ele></ele><time>2019-6-8T23:30:6Z</time></trkpt>
<trkpt lat="46.20956" lon="7.44547"><ele></ele><time>2019-6-8T23:30:9Z</time></trkpt>
<trkpt lat="46.20943" lon="7.44567"><ele></ele><time>2019-6-8T23:30:12Z</time></trkpt>
<trkpt lat="46.20926" lon="7.44583"><ele></ele><time>2019-6-8T23:30:15Z</time></trkpt>
<trkpt lat="46.2092" lon="7.44582"><ele></ele><time>2019-6-8T23:30:18Z</time></trkpt>
<trkpt lat="46.20902" lon="7.44574"><ele></ele><time>2019-6-8T23:30:21Z</time></trkpt>
<trkpt lat="46.20884" lon="7.44579"><ele></ele><time>2019-6-8T23:30:24Z</time></trkpt>
<trkpt lat="46.20872" lon="7.44579"><ele></ele><time>2019-6-8T23:30:27Z</time></trkpt>
<trkpt lat="46.20855" lon="7.44567"><ele></ele><time>2019-6-8T23:30:30Z</time></trkpt>
<trkpt lat="46.20837" lon="7.44554"><ele></ele><time>2019-6-8T23:30:33Z</time></trkpt>
<trkpt lat="46.20815" lon="7.44538"><ele></ele><time>2019-6-8T23:30:36Z</time></trkpt>
<trkpt lat="46.20797" lon="7.44527"><ele></ele><time>2019-6-8T23:30:39Z</time></trkpt>
<trkpt lat="46.20789" lon="7.44521"><ele></ele><time>2019-6-8T23:30:42Z</time></trkpt>
<trkpt lat="46.20771" lon="7.4451"><ele></ele><time>2019-6-8T23:30:45Z</time></trkpt>
<trkpt lat="46.20755" lon="7.44495"><ele></ele><time>2019-6-8T23:30:48Z</time></trkpt>
<trkpt lat="46.20739" lon="7.44477"><ele></ele><time>2019-6-8T23:30:51Z</time></trkpt>
<trkpt lat="46.20733" lon="7.44466"><ele></ele><time>2019-6-8T23:30:54Z</time></trkpt>
<trkpt lat="46.20721" lon="7.44443"><ele></ele><time>2019-6-8T23:30:57Z</time></trkpt>
<trkpt lat="46.2071" lon="7.44421"><ele></ele><time>2019-6-8T23:31:0Z</time></trkpt>
<trkpt lat="46.20703" lon="7.4441"><ele></ele><time>2019-6-8T23:31:3Z</time></trkpt>
<trkpt lat="46.20687" lon="7.44389"><ele></ele><time>2019-6-8T23:31:6Z</time></trkpt>
<trkpt lat="46.20678" lon="7.4438"><ele></ele><time>2019-6-8T23:31:9Z</time></trkpt>
<trkpt lat="46.20659" lon="7.44363"><ele></ele><time>2019-6-8T23:31:12Z</time></trkpt>
<trkpt lat="46.2064" lon="7.44348"><ele></ele><time>2019-6-8T23:31:15Z</time></trkpt>
<trkpt lat="46.20621" lon="7.44331"><ele></ele><time>2019-6-8T23:31:18Z</time></trkpt>
<trkpt lat="46.20606" lon="7.44307"><ele></ele><time>2019-6-8T23:31:21Z</time></trkpt>
<trkpt lat="46.20591" lon="7.44281"><ele></ele><time>2019-6-8T23:31:24Z</time></trkpt>
<trkpt lat="46.20582" lon="7.44249"><ele></ele><time>2019-6-8T23:31:27Z</time></trkpt>
<trkpt lat="46.20579" lon="7.44214"><ele></ele><time>2019-6-8T23:31:30Z</time></trkpt>
<trkpt lat="46.20578" lon="7.44197"><ele></ele><time>2019-6-8T23:31:33Z</time></trkpt>
<trkpt lat="46.20575" lon="7.44163"><ele></ele><time>2019-6-8T23:31:36Z</time></trkpt>
<trkpt lat="46.20572" lon="7.44148"><ele></ele><time>2019-6-8T23:31:39Z</time></trkpt>
<trkpt lat="46.20569" lon="7.44133"><ele></ele><time>2019-6-8T23:31:42Z</time></trkpt>
<trkpt lat="46.20565" lon="7.44119"><ele></ele><time>2019-6-8T23:31:45Z</time></trkpt>
<trkpt lat="46.20553" lon="7.44094"><ele></ele><time>2019-6-8T23:31:48Z</time></trkpt>
<trkpt lat="46.20537" lon="7.44072"><ele></ele><time>2019-6-8T23:31:51Z</time></trkpt>
<trkpt lat="46.20519" lon="7.44052"><ele></ele><time>2019-6-8T23:31:54Z</time></trkpt>
<trkpt lat="46.20498" lon="7.44031"><ele></ele><time>2019-6-8T23:31:57Z</time></trkpt>
<trkpt lat="46.20478" lon="7.4401"><ele></ele><time>2019-6-8T23:32:0Z</time></trkpt>
<trkpt lat="46.2046" lon="7.43992"><ele></ele><time>2019-6-8T23:32:3Z</time></trkpt>
<trkpt lat="46.20446" lon="7.43978"><ele></ele><time>2019-6-8T23:32:6Z</time></trkpt>
<trkpt lat="46.20453" lon="7.43961"><ele></ele><time>2019-6-8T23:32:9Z</time></trkpt>
<trkpt lat="46.20458" lon="7.43964"><ele></ele><time>2019-6-8T23:32:12Z</time></trkpt>
<trkpt lat="46.20478" lon="7.43978"><ele></ele><time>2019-6-8T23:32:15Z</time></trkpt>
<trkpt lat="46.20496" lon="7.43987"><ele></ele><time>2019-6-8T23:32:18Z</time></trkpt>
<trkpt lat="46.20515" lon="7.43999"><ele></ele><time>2019-6-8T23:32:21Z</time></trkpt>
<trkpt lat="46.20537" lon="7.44014"><ele></ele><time>2019-6-8T23:32:24Z</time></trkpt>
<trkpt lat="46.20557" lon="7.44028"><ele></ele><time>2019-6-8T23:32:27Z</time></trkpt>
<trkpt lat="46.20577" lon="7.44028"><ele></ele><time>2019-6-8T23:32:30Z</time></trkpt>
<trkpt lat="46.20568" lon="7.44004"><ele></ele><time>2019-6-8T23:32:33Z</time></trkpt>
<trkpt lat="46.20566" lon="7.43999"><ele></ele><time>2019-6-8T23:32:36Z</time></trkpt>
<trkpt lat="46.20563" lon="7.43991"><ele></ele><time>2019-6-8T23:32:39Z</time></trkpt>
<trkpt lat="46.20573" lon="7.43975"><ele></ele><time>2019-6-8T23:32:42Z</time></trkpt>
<trkpt lat="46.20578" lon="7.43971"><ele></ele><time>2019-6-8T23:32:45Z</time></trkpt>
<trkpt lat="46.20587" lon="7.43966"><ele></ele><time>2019-6-8T23:32:48Z</time></trkpt>
<trkpt lat="46.20606" lon="7.4396"><ele></ele><time>2019-6-8T23:32:51Z</time></trkpt>
<trkpt lat="46.20614" lon="7.43958"><ele></ele><time>2019-6-8T23:32:54Z</time></trkpt>
<trkpt lat="46.20623" lon="7.43957"><ele></ele><time>2019-6-8T23:32:57Z</time></trkpt>
<trkpt lat="46.20631" lon="7.43972"><ele></ele><time>2019-6-8T23:33:0Z</time></trkpt>
<trkpt lat="46.20645" lon="7.4399"><ele></ele><time>2019-6-8T23:33:3Z</time></trkpt>
<trkpt lat="46.20645" lon="7.43993"><ele></ele><time>2019-6-8T23:33:6Z</time></trkpt>
<trkpt lat="46.20645" lon="7.43993"><ele></ele><time>2019-6-8T23:33:9Z</time></trkpt>
</trkseg></trk></gpx>